<?xml version="1.0" encoding="UTF-8" standalone="no" ?><gpx xmlns="http://www.topografix.com/GPX/1/1" xmlns:gpxx="http://www.garmin.com/xmlschemas/GpxExtensions/v3" xmlns:wptx1="http://www.garmin.com/xmlschemas/WaypointExtension/v1" xmlns:gpxtpx="http://www.garmin.com/xmlschemas/TrackPointExtension/v1" creator="GuideVTT.com" version="1.1" xmlns:xsi="http://www.w3.org/2001/XMLSchema-instance" xsi:schemaLocation="http://www.topografix.com/GPX/1/1 http://www.topografix.com/GPX/1/1/gpx.xsd http://www.garmin.com/xmlschemas/GpxExtensions/v3 http://www8.garmin.com/xmlschemas/GpxExtensionsv3.xsd http://www.garmin.com/xmlschemas/WaypointExtension/v1 http://www8.garmin.com/xmlschemas/WaypointExtensionv1.xsd http://www.garmin.com/xmlschemas/TrackPointExtension/v1 http://www.garmin.com/xmlschemas/TrackPointExtensionv1.xsd">
<metadata><link href="http://www.garmin.com"><text>Garmin International</text></link><time>2013-06-22T15:13:50Z</time></metadata>
<trk><name>rp2016_lacbleu.gpx</name><extensions><gpxx:TrackExtension><gpxx:DisplayColor>Cyan</gpxx:DisplayColor></gpxx:TrackExtension></extensions><trkseg>
<trkpt lat="46.05406" lon="7.49039"><ele></ele><time>2016-7-15T3:4:10Z</time></trkpt>
<trkpt lat="46.05406" lon="7.49039"><ele></ele><time>2016-7-15T3:4:13Z</time></trkpt>
<trkpt lat="46.05409" lon="7.4903"><ele></ele><time>2016-7-15T3:4:16Z</time></trkpt>
<trkpt lat="46.05417" lon="7.49033"><ele></ele><time>2016-7-15T3:4:19Z</time></trkpt>
<trkpt lat="46.05423" lon="7.49033"><ele></ele><time>2016-7-15T3:4:22Z</time></trkpt>
<trkpt lat="46.05441" lon="7.49043"><ele></ele><time>2016-7-15T3:4:25Z</time></trkpt>
<trkpt lat="46.05454" lon="7.4906"><ele></ele><time>2016-7-15T3:4:28Z</time></trkpt>
<trkpt lat="46.05462" lon="7.49073"><ele></ele><time>2016-7-15T3:4:31Z</time></trkpt>
<trkpt lat="46.05464" lon="7.49075"><ele></ele><time>2016-7-15T3:4:34Z</time></trkpt>
<trkpt lat="46.05472" lon="7.49085"><ele></ele><time>2016-7-15T3:4:37Z</time></trkpt>
<trkpt lat="46.05488" lon="7.491"><ele></ele><time>2016-7-15T3:4:40Z</time></trkpt>
<trkpt lat="46.05516" lon="7.49111"><ele></ele><time>2016-7-15T3:4:43Z</time></trkpt>
<trkpt lat="46.05533" lon="7.491"><ele></ele><time>2016-7-15T3:4:46Z</time></trkpt>
<trkpt lat="46.05554" lon="7.49089"><ele></ele><time>2016-7-15T3:4:49Z</time></trkpt>
<trkpt lat="46.05574" lon="7.49084"><ele></ele><time>2016-7-15T3:4:52Z</time></trkpt>
<trkpt lat="46.05591" lon="7.49086"><ele></ele><time>2016-7-15T3:4:55Z</time></trkpt>
<trkpt lat="46.05609" lon="7.49093"><ele></ele><time>2016-7-15T3:4:58Z</time></trkpt>
<trkpt lat="46.05628" lon="7.49101"><ele></ele><time>2016-7-15T3:5:1Z</time></trkpt>
<trkpt lat="46.05647" lon="7.49108"><ele></ele><time>2016-7-15T3:5:4Z</time></trkpt>
<trkpt lat="46.05661" lon="7.49109"><ele></ele><time>2016-7-15T3:5:7Z</time></trkpt>
<trkpt lat="46.0568" lon="7.49108"><ele></ele><time>2016-7-15T3:5:10Z</time></trkpt>
<trkpt lat="46.057" lon="7.49106"><ele></ele><time>2016-7-15T3:5:13Z</time></trkpt>
<trkpt lat="46.05704" lon="7.49105"><ele></ele><time>2016-7-15T3:5:16Z</time></trkpt>
<trkpt lat="46.05722" lon="7.49101"><ele></ele><time>2016-7-15T3:5:19Z</time></trkpt>
<trkpt lat="46.05743" lon="7.49094"><ele></ele><time>2016-7-15T3:5:22Z</time></trkpt>
<trkpt lat="46.05748" lon="7.49094"><ele></ele><time>2016-7-15T3:5:25Z</time></trkpt>
<trkpt lat="46.0577" lon="7.49096"><ele></ele><time>2016-7-15T3:5:28Z</time></trkpt>
<trkpt lat="46.05788" lon="7.491"><ele></ele><time>2016-7-15T3:5:31Z</time></trkpt>
<trkpt lat="46.05807" lon="7.49104"><ele></ele><time>2016-7-15T3:5:34Z</time></trkpt>
<trkpt lat="46.05826" lon="7.4911"><ele></ele><time>2016-7-15T3:5:37Z</time></trkpt>
<trkpt lat="46.05845" lon="7.49118"><ele></ele><time>2016-7-15T3:5:40Z</time></trkpt>
<trkpt lat="46.05864" lon="7.49125"><ele></ele><time>2016-7-15T3:5:43Z</time></trkpt>
<trkpt lat="46.05882" lon="7.49134"><ele></ele><time>2016-7-15T3:5:46Z</time></trkpt>
<trkpt lat="46.05894" lon="7.4914"><ele></ele><time>2016-7-15T3:5:49Z</time></trkpt>
<trkpt lat="46.05906" lon="7.49145"><ele></ele><time>2016-7-15T3:5:52Z</time></trkpt>
<trkpt lat="46.05926" lon="7.49146"><ele></ele><time>2016-7-15T3:5:55Z</time></trkpt>
<trkpt lat="46.05946" lon="7.49145"><ele></ele><time>2016-7-15T3:5:58Z</time></trkpt>
<trkpt lat="46.05968" lon="7.49143"><ele></ele><time>2016-7-15T3:6:1Z</time></trkpt>
<trkpt lat="46.05987" lon="7.49142"><ele></ele><time>2016-7-15T3:6:4Z</time></trkpt>
<trkpt lat="46.06002" lon="7.49141"><ele></ele><time>2016-7-15T3:6:7Z</time></trkpt>
<trkpt lat="46.06002" lon="7.49131"><ele></ele><time>2016-7-15T3:6:10Z</time></trkpt>
<trkpt lat="46.06001" lon="7.49131"><ele></ele><time>2016-7-15T3:6:13Z</time></trkpt>
<trkpt lat="46.05999" lon="7.49131"><ele></ele><time>2016-7-15T3:6:16Z</time></trkpt>
<trkpt lat="46.05998" lon="7.49131"><ele></ele><time>2016-7-15T3:6:19Z</time></trkpt>
<trkpt lat="46.05993" lon="7.4913"><ele></ele><time>2016-7-15T3:6:22Z</time></trkpt>
<trkpt lat="46.05988" lon="7.49128"><ele></ele><time>2016-7-15T3:6:25Z</time></trkpt>
<trkpt lat="46.05987" lon="7.49127"><ele></ele><time>2016-7-15T3:6:28Z</time></trkpt>
<trkpt lat="46.05986" lon="7.49127"><ele></ele><time>2016-7-15T3:6:31Z</time></trkpt>
<trkpt lat="46.05984" lon="7.49127"><ele></ele><time>2016-7-15T3:6:34Z</time></trkpt>
<trkpt lat="46.0598" lon="7.49126"><ele></ele><time>2016-7-15T3:6:37Z</time></trkpt>
<trkpt lat="46.05978" lon="7.49126"><ele></ele><time>2016-7-15T3:6:40Z</time></trkpt>
<trkpt lat="46.05977" lon="7.49126"><ele></ele><time>2016-7-15T3:6:43Z</time></trkpt>
<trkpt lat="46.05976" lon="7.49126"><ele></ele><time>2016-7-15T3:6:46Z</time></trkpt>
<trkpt lat="46.05969" lon="7.49125"><ele></ele><time>2016-7-15T3:6:49Z</time></trkpt>
<trkpt lat="46.05965" lon="7.49124"><ele></ele><time>2016-7-15T3:6:52Z</time></trkpt>
<trkpt lat="46.05959" lon="7.49123"><ele></ele><time>2016-7-15T3:6:55Z</time></trkpt>
<trkpt lat="46.05952" lon="7.49122"><ele></ele><time>2016-7-15T3:6:58Z</time></trkpt>
<trkpt lat="46.05947" lon="7.49119"><ele></ele><time>2016-7-15T3:7:1Z</time></trkpt>
<trkpt lat="46.05946" lon="7.49118"><ele></ele><time>2016-7-15T3:7:4Z</time></trkpt>
<trkpt lat="46.0594" lon="7.49112"><ele></ele><time>2016-7-15T3:7:7Z</time></trkpt>
<trkpt lat="46.05935" lon="7.49106"><ele></ele><time>2016-7-15T3:7:10Z</time></trkpt>
<trkpt lat="46.05925" lon="7.49093"><ele></ele><time>2016-7-15T3:7:13Z</time></trkpt>
<trkpt lat="46.05919" lon="7.49087"><ele></ele><time>2016-7-15T3:7:16Z</time></trkpt>
<trkpt lat="46.05912" lon="7.49076"><ele></ele><time>2016-7-15T3:7:19Z</time></trkpt>
<trkpt lat="46.05903" lon="7.49064"><ele></ele><time>2016-7-15T3:7:22Z</time></trkpt>
<trkpt lat="46.05898" lon="7.49057"><ele></ele><time>2016-7-15T3:7:25Z</time></trkpt>
<trkpt lat="46.05889" lon="7.49046"><ele></ele><time>2016-7-15T3:7:28Z</time></trkpt>
<trkpt lat="46.05882" lon="7.49035"><ele></ele><time>2016-7-15T3:7:31Z</time></trkpt>
<trkpt lat="46.05878" lon="7.49031"><ele></ele><time>2016-7-15T3:7:34Z</time></trkpt>
<trkpt lat="46.05865" lon="7.49011"><ele></ele><time>2016-7-15T3:7:37Z</time></trkpt>
<trkpt lat="46.0586" lon="7.49003"><ele></ele><time>2016-7-15T3:7:40Z</time></trkpt>
<trkpt lat="46.0585" lon="7.49003"><ele></ele><time>2016-7-15T3:7:43Z</time></trkpt>
<trkpt lat="46.05839" lon="7.49006"><ele></ele><time>2016-7-15T3:7:46Z</time></trkpt>
<trkpt lat="46.05836" lon="7.49002"><ele></ele><time>2016-7-15T3:7:49Z</time></trkpt>
<trkpt lat="46.05831" lon="7.48987"><ele></ele><time>2016-7-15T3:7:52Z</time></trkpt>
<trkpt lat="46.05831" lon="7.48975"><ele></ele><time>2016-7-15T3:7:55Z</time></trkpt>
<trkpt lat="46.05829" lon="7.48965"><ele></ele><time>2016-7-15T3:7:58Z</time></trkpt>
<trkpt lat="46.05829" lon="7.48963"><ele></ele><time>2016-7-15T3:8:1Z</time></trkpt>
<trkpt lat="46.05821" lon="7.48953"><ele></ele><time>2016-7-15T3:8:4Z</time></trkpt>
<trkpt lat="46.05816" lon="7.48947"><ele></ele><time>2016-7-15T3:8:7Z</time></trkpt>
<trkpt lat="46.05808" lon="7.48938"><ele></ele><time>2016-7-15T3:8:10Z</time></trkpt>
<trkpt lat="46.05796" lon="7.48937"><ele></ele><time>2016-7-15T3:8:13Z</time></trkpt>
<trkpt lat="46.05785" lon="7.48943"><ele></ele><time>2016-7-15T3:8:16Z</time></trkpt>
<trkpt lat="46.05781" lon="7.48945"><ele></ele><time>2016-7-15T3:8:19Z</time></trkpt>
<trkpt lat="46.05761" lon="7.48931"><ele></ele><time>2016-7-15T3:8:22Z</time></trkpt>
<trkpt lat="46.05755" lon="7.48924"><ele></ele><time>2016-7-15T3:8:25Z</time></trkpt>
<trkpt lat="46.05745" lon="7.48919"><ele></ele><time>2016-7-15T3:8:28Z</time></trkpt>
<trkpt lat="46.05727" lon="7.48926"><ele></ele><time>2016-7-15T3:8:31Z</time></trkpt>
<trkpt lat="46.05708" lon="7.48929"><ele></ele><time>2016-7-15T3:8:34Z</time></trkpt>
<trkpt lat="46.05691" lon="7.48922"><ele></ele><time>2016-7-15T3:8:37Z</time></trkpt>
<trkpt lat="46.05683" lon="7.4892"><ele></ele><time>2016-7-15T3:8:40Z</time></trkpt>
<trkpt lat="46.05677" lon="7.48919"><ele></ele><time>2016-7-15T3:8:43Z</time></trkpt>
<trkpt lat="46.05667" lon="7.48919"><ele></ele><time>2016-7-15T3:8:46Z</time></trkpt>
<trkpt lat="46.05638" lon="7.48901"><ele></ele><time>2016-7-15T3:8:49Z</time></trkpt>
<trkpt lat="46.05629" lon="7.48879"><ele></ele><time>2016-7-15T3:8:52Z</time></trkpt>
<trkpt lat="46.05627" lon="7.48873"><ele></ele><time>2016-7-15T3:8:55Z</time></trkpt>
<trkpt lat="46.05625" lon="7.48868"><ele></ele><time>2016-7-15T3:8:58Z</time></trkpt>
<trkpt lat="46.05613" lon="7.48848"><ele></ele><time>2016-7-15T3:9:1Z</time></trkpt>
<trkpt lat="46.05608" lon="7.48841"><ele></ele><time>2016-7-15T3:9:4Z</time></trkpt>
<trkpt lat="46.05601" lon="7.48831"><ele></ele><time>2016-7-15T3:9:7Z</time></trkpt>
<trkpt lat="46.05586" lon="7.48814"><ele></ele><time>2016-7-15T3:9:10Z</time></trkpt>
<trkpt lat="46.05575" lon="7.48804"><ele></ele><time>2016-7-15T3:9:13Z</time></trkpt>
<trkpt lat="46.05568" lon="7.48797"><ele></ele><time>2016-7-15T3:9:16Z</time></trkpt>
<trkpt lat="46.05564" lon="7.48793"><ele></ele><time>2016-7-15T3:9:19Z</time></trkpt>
<trkpt lat="46.05549" lon="7.48776"><ele></ele><time>2016-7-15T3:9:22Z</time></trkpt>
<trkpt lat="46.05529" lon="7.48763"><ele></ele><time>2016-7-15T3:9:25Z</time></trkpt>
<trkpt lat="46.0552" lon="7.48758"><ele></ele><time>2016-7-15T3:9:28Z</time></trkpt>
<trkpt lat="46.05502" lon="7.48749"><ele></ele><time>2016-7-15T3:9:31Z</time></trkpt>
<trkpt lat="46.05486" lon="7.48737"><ele></ele><time>2016-7-15T3:9:34Z</time></trkpt>
<trkpt lat="46.05479" lon="7.4873"><ele></ele><time>2016-7-15T3:9:37Z</time></trkpt>
<trkpt lat="46.05476" lon="7.48728"><ele></ele><time>2016-7-15T3:9:40Z</time></trkpt>
<trkpt lat="46.05471" lon="7.48728"><ele></ele><time>2016-7-15T3:9:43Z</time></trkpt>
<trkpt lat="46.05471" lon="7.48728"><ele></ele><time>2016-7-15T3:9:46Z</time></trkpt>
<trkpt lat="46.0547" lon="7.48728"><ele></ele><time>2016-7-15T3:9:49Z</time></trkpt>
<trkpt lat="46.05466" lon="7.48727"><ele></ele><time>2016-7-15T3:9:52Z</time></trkpt>
<trkpt lat="46.05465" lon="7.48725"><ele></ele><time>2016-7-15T3:9:55Z</time></trkpt>
<trkpt lat="46.05464" lon="7.48726"><ele></ele><time>2016-7-15T3:9:58Z</time></trkpt>
<trkpt lat="46.05477" lon="7.48717"><ele></ele><time>2016-7-15T3:10:1Z</time></trkpt>
<trkpt lat="46.05478" lon="7.48716"><ele></ele><time>2016-7-15T3:10:4Z</time></trkpt>
<trkpt lat="46.05479" lon="7.48715"><ele></ele><time>2016-7-15T3:10:7Z</time></trkpt>
<trkpt lat="46.05478" lon="7.48717"><ele></ele><time>2016-7-15T3:10:10Z</time></trkpt>
<trkpt lat="46.05478" lon="7.48716"><ele></ele><time>2016-7-15T3:10:13Z</time></trkpt>
<trkpt lat="46.05478" lon="7.48715"><ele></ele><time>2016-7-15T3:10:16Z</time></trkpt>
<trkpt lat="46.05478" lon="7.48716"><ele></ele><time>2016-7-15T3:10:19Z</time></trkpt>
<trkpt lat="46.05479" lon="7.48712"><ele></ele><time>2016-7-15T3:10:22Z</time></trkpt>
<trkpt lat="46.05479" lon="7.4871"><ele></ele><time>2016-7-15T3:10:25Z</time></trkpt>
<trkpt lat="46.05478" lon="7.48709"><ele></ele><time>2016-7-15T3:10:28Z</time></trkpt>
<trkpt lat="46.05478" lon="7.48709"><ele></ele><time>2016-7-15T3:10:31Z</time></trkpt>
<trkpt lat="46.05478" lon="7.4871"><ele></ele><time>2016-7-15T3:10:34Z</time></trkpt>
<trkpt lat="46.05477" lon="7.4871"><ele></ele><time>2016-7-15T3:10:37Z</time></trkpt>
<trkpt lat="46.05477" lon="7.4871"><ele></ele><time>2016-7-15T3:10:40Z</time></trkpt>
<trkpt lat="46.05478" lon="7.4871"><ele></ele><time>2016-7-15T3:10:43Z</time></trkpt>
<trkpt lat="46.05478" lon="7.48709"><ele></ele><time>2016-7-15T3:10:46Z</time></trkpt>
<trkpt lat="46.05478" lon="7.48709"><ele></ele><time>2016-7-15T3:10:49Z</time></trkpt>
<trkpt lat="46.05479" lon="7.48708"><ele></ele><time>2016-7-15T3:10:52Z</time></trkpt>
<trkpt lat="46.05477" lon="7.48702"><ele></ele><time>2016-7-15T3:10:55Z</time></trkpt>
<trkpt lat="46.05475" lon="7.48701"><ele></ele><time>2016-7-15T3:10:58Z</time></trkpt>
<trkpt lat="46.05475" lon="7.48702"><ele></ele><time>2016-7-15T3:11:1Z</time></trkpt>
<trkpt lat="46.05475" lon="7.48702"><ele></ele><time>2016-7-15T3:11:4Z</time></trkpt>
<trkpt lat="46.05475" lon="7.48702"><ele></ele><time>2016-7-15T3:11:7Z</time></trkpt>
<trkpt lat="46.05475" lon="7.48702"><ele></ele><time>2016-7-15T3:11:10Z</time></trkpt>
<trkpt lat="46.05474" lon="7.48703"><ele></ele><time>2016-7-15T3:11:13Z</time></trkpt>
<trkpt lat="46.05481" lon="7.48707"><ele></ele><time>2016-7-15T3:11:16Z</time></trkpt>
<trkpt lat="46.05488" lon="7.48707"><ele></ele><time>2016-7-15T3:11:19Z</time></trkpt>
<trkpt lat="46.05496" lon="7.48701"><ele></ele><time>2016-7-15T3:11:22Z</time></trkpt>
<trkpt lat="46.05486" lon="7.48711"><ele></ele><time>2016-7-15T3:11:25Z</time></trkpt>
<trkpt lat="46.05479" lon="7.48718"><ele></ele><time>2016-7-15T3:11:28Z</time></trkpt>
<trkpt lat="46.05478" lon="7.48717"><ele></ele><time>2016-7-15T3:11:31Z</time></trkpt>
<trkpt lat="46.05479" lon="7.48717"><ele></ele><time>2016-7-15T3:11:34Z</time></trkpt>
<trkpt lat="46.05479" lon="7.48717"><ele></ele><time>2016-7-15T3:11:37Z</time></trkpt>
<trkpt lat="46.05479" lon="7.48718"><ele></ele><time>2016-7-15T3:11:40Z</time></trkpt>
<trkpt lat="46.05479" lon="7.48718"><ele></ele><time>2016-7-15T3:11:43Z</time></trkpt>
<trkpt lat="46.05479" lon="7.48718"><ele></ele><time>2016-7-15T3:11:46Z</time></trkpt>
<trkpt lat="46.05479" lon="7.48716"><ele></ele><time>2016-7-15T3:11:49Z</time></trkpt>
<trkpt lat="46.05479" lon="7.48717"><ele></ele><time>2016-7-15T3:11:52Z</time></trkpt>
<trkpt lat="46.05478" lon="7.48718"><ele></ele><time>2016-7-15T3:11:55Z</time></trkpt>
<trkpt lat="46.05466" lon="7.48738"><ele></ele><time>2016-7-15T3:11:58Z</time></trkpt>
<trkpt lat="46.05462" lon="7.4875"><ele></ele><time>2016-7-15T3:12:1Z</time></trkpt>
<trkpt lat="46.05459" lon="7.48756"><ele></ele><time>2016-7-15T3:12:4Z</time></trkpt>
<trkpt lat="46.05458" lon="7.48761"><ele></ele><time>2016-7-15T3:12:7Z</time></trkpt>
<trkpt lat="46.05455" lon="7.48765"><ele></ele><time>2016-7-15T3:12:10Z</time></trkpt>
<trkpt lat="46.05447" lon="7.48785"><ele></ele><time>2016-7-15T3:12:13Z</time></trkpt>
<trkpt lat="46.05446" lon="7.48786"><ele></ele><time>2016-7-15T3:12:16Z</time></trkpt>
<trkpt lat="46.0544" lon="7.48787"><ele></ele><time>2016-7-15T3:12:19Z</time></trkpt>
<trkpt lat="46.05438" lon="7.48789"><ele></ele><time>2016-7-15T3:12:22Z</time></trkpt>
<trkpt lat="46.05442" lon="7.48798"><ele></ele><time>2016-7-15T3:12:25Z</time></trkpt>
<trkpt lat="46.05442" lon="7.48802"><ele></ele><time>2016-7-15T3:12:28Z</time></trkpt>
<trkpt lat="46.0544" lon="7.48807"><ele></ele><time>2016-7-15T3:12:31Z</time></trkpt>
<trkpt lat="46.05436" lon="7.48821"><ele></ele><time>2016-7-15T3:12:34Z</time></trkpt>
<trkpt lat="46.05433" lon="7.48829"><ele></ele><time>2016-7-15T3:12:37Z</time></trkpt>
<trkpt lat="46.05431" lon="7.48833"><ele></ele><time>2016-7-15T3:12:40Z</time></trkpt>
<trkpt lat="46.0543" lon="7.48832"><ele></ele><time>2016-7-15T3:12:43Z</time></trkpt>
<trkpt lat="46.05426" lon="7.48838"><ele></ele><time>2016-7-15T3:12:46Z</time></trkpt>
<trkpt lat="46.05426" lon="7.48843"><ele></ele><time>2016-7-15T3:12:49Z</time></trkpt>
<trkpt lat="46.05426" lon="7.48843"><ele></ele><time>2016-7-15T3:12:52Z</time></trkpt>
<trkpt lat="46.05419" lon="7.48848"><ele></ele><time>2016-7-15T3:12:55Z</time></trkpt>
<trkpt lat="46.05418" lon="7.48851"><ele></ele><time>2016-7-15T3:12:58Z</time></trkpt>
<trkpt lat="46.05418" lon="7.48855"><ele></ele><time>2016-7-15T3:13:1Z</time></trkpt>
<trkpt lat="46.05417" lon="7.48855"><ele></ele><time>2016-7-15T3:13:4Z</time></trkpt>
<trkpt lat="46.05412" lon="7.48855"><ele></ele><time>2016-7-15T3:13:7Z</time></trkpt>
<trkpt lat="46.0541" lon="7.48856"><ele></ele><time>2016-7-15T3:13:10Z</time></trkpt>
<trkpt lat="46.05406" lon="7.48862"><ele></ele><time>2016-7-15T3:13:13Z</time></trkpt>
<trkpt lat="46.05394" lon="7.48864"><ele></ele><time>2016-7-15T3:13:16Z</time></trkpt>
<trkpt lat="46.05394" lon="7.48869"><ele></ele><time>2016-7-15T3:13:19Z</time></trkpt>
<trkpt lat="46.05404" lon="7.48882"><ele></ele><time>2016-7-15T3:13:22Z</time></trkpt>
<trkpt lat="46.05405" lon="7.48886"><ele></ele><time>2016-7-15T3:13:25Z</time></trkpt>
<trkpt lat="46.05404" lon="7.48887"><ele></ele><time>2016-7-15T3:13:28Z</time></trkpt>
<trkpt lat="46.05391" lon="7.48884"><ele></ele><time>2016-7-15T3:13:31Z</time></trkpt>
<trkpt lat="46.05389" lon="7.48884"><ele></ele><time>2016-7-15T3:13:34Z</time></trkpt>
<trkpt lat="46.05384" lon="7.48885"><ele></ele><time>2016-7-15T3:13:37Z</time></trkpt>
<trkpt lat="46.05383" lon="7.48886"><ele></ele><time>2016-7-15T3:13:40Z</time></trkpt>
<trkpt lat="46.05369" lon="7.48895"><ele></ele><time>2016-7-15T3:13:43Z</time></trkpt>
<trkpt lat="46.05371" lon="7.48906"><ele></ele><time>2016-7-15T3:13:46Z</time></trkpt>
<trkpt lat="46.05373" lon="7.48925"><ele></ele><time>2016-7-15T3:13:49Z</time></trkpt>
<trkpt lat="46.05373" lon="7.48925"><ele></ele><time>2016-7-15T3:13:52Z</time></trkpt>
<trkpt lat="46.05374" lon="7.48925"><ele></ele><time>2016-7-15T3:13:55Z</time></trkpt>
<trkpt lat="46.05373" lon="7.48926"><ele></ele><time>2016-7-15T3:13:58Z</time></trkpt>
<trkpt lat="46.05369" lon="7.48931"><ele></ele><time>2016-7-15T3:14:1Z</time></trkpt>
<trkpt lat="46.05369" lon="7.48931"><ele></ele><time>2016-7-15T3:14:4Z</time></trkpt>
<trkpt lat="46.05369" lon="7.48931"><ele></ele><time>2016-7-15T3:14:7Z</time></trkpt>
<trkpt lat="46.05369" lon="7.48931"><ele></ele><time>2016-7-15T3:14:10Z</time></trkpt>
<trkpt lat="46.05368" lon="7.48931"><ele></ele><time>2016-7-15T3:14:13Z</time></trkpt>
<trkpt lat="46.05368" lon="7.48932"><ele></ele><time>2016-7-15T3:14:16Z</time></trkpt>
<trkpt lat="46.05367" lon="7.48931"><ele></ele><time>2016-7-15T3:14:19Z</time></trkpt>
<trkpt lat="46.05362" lon="7.48925"><ele></ele><time>2016-7-15T3:14:22Z</time></trkpt>
<trkpt lat="46.05354" lon="7.48919"><ele></ele><time>2016-7-15T3:14:25Z</time></trkpt>
<trkpt lat="46.05353" lon="7.48919"><ele></ele><time>2016-7-15T3:14:28Z</time></trkpt>
<trkpt lat="46.05353" lon="7.48918"><ele></ele><time>2016-7-15T3:14:31Z</time></trkpt>
<trkpt lat="46.05352" lon="7.48917"><ele></ele><time>2016-7-15T3:14:34Z</time></trkpt>
<trkpt lat="46.05351" lon="7.48917"><ele></ele><time>2016-7-15T3:14:37Z</time></trkpt>
<trkpt lat="46.05349" lon="7.48915"><ele></ele><time>2016-7-15T3:14:40Z</time></trkpt>
<trkpt lat="46.05348" lon="7.48914"><ele></ele><time>2016-7-15T3:14:43Z</time></trkpt>
<trkpt lat="46.05351" lon="7.4891"><ele></ele><time>2016-7-15T3:14:46Z</time></trkpt>
<trkpt lat="46.05349" lon="7.48904"><ele></ele><time>2016-7-15T3:14:49Z</time></trkpt>
<trkpt lat="46.05347" lon="7.48903"><ele></ele><time>2016-7-15T3:14:52Z</time></trkpt>
<trkpt lat="46.05346" lon="7.48902"><ele></ele><time>2016-7-15T3:14:55Z</time></trkpt>
<trkpt lat="46.05343" lon="7.48899"><ele></ele><time>2016-7-15T3:14:58Z</time></trkpt>
<trkpt lat="46.05332" lon="7.48889"><ele></ele><time>2016-7-15T3:15:1Z</time></trkpt>
<trkpt lat="46.05326" lon="7.48876"><ele></ele><time>2016-7-15T3:15:4Z</time></trkpt>
<trkpt lat="46.05309" lon="7.48871"><ele></ele><time>2016-7-15T3:15:7Z</time></trkpt>
<trkpt lat="46.05291" lon="7.48864"><ele></ele><time>2016-7-15T3:15:10Z</time></trkpt>
<trkpt lat="46.05282" lon="7.48844"><ele></ele><time>2016-7-15T3:15:13Z</time></trkpt>
<trkpt lat="46.05278" lon="7.48833"><ele></ele><time>2016-7-15T3:15:16Z</time></trkpt>
<trkpt lat="46.05275" lon="7.48828"><ele></ele><time>2016-7-15T3:15:19Z</time></trkpt>
<trkpt lat="46.0527" lon="7.48823"><ele></ele><time>2016-7-15T3:15:22Z</time></trkpt>
<trkpt lat="46.05265" lon="7.48811"><ele></ele><time>2016-7-15T3:15:25Z</time></trkpt>
<trkpt lat="46.05256" lon="7.48796"><ele></ele><time>2016-7-15T3:15:28Z</time></trkpt>
<trkpt lat="46.05254" lon="7.48795"><ele></ele><time>2016-7-15T3:15:31Z</time></trkpt>
<trkpt lat="46.05247" lon="7.48792"><ele></ele><time>2016-7-15T3:15:34Z</time></trkpt>
<trkpt lat="46.05246" lon="7.48791"><ele></ele><time>2016-7-15T3:15:37Z</time></trkpt>
<trkpt lat="46.05245" lon="7.4879"><ele></ele><time>2016-7-15T3:15:40Z</time></trkpt>
<trkpt lat="46.05236" lon="7.48772"><ele></ele><time>2016-7-15T3:15:43Z</time></trkpt>
<trkpt lat="46.05219" lon="7.48762"><ele></ele><time>2016-7-15T3:15:46Z</time></trkpt>
<trkpt lat="46.05204" lon="7.48747"><ele></ele><time>2016-7-15T3:15:49Z</time></trkpt>
<trkpt lat="46.05199" lon="7.4874"><ele></ele><time>2016-7-15T3:15:52Z</time></trkpt>
<trkpt lat="46.05196" lon="7.48741"><ele></ele><time>2016-7-15T3:15:55Z</time></trkpt>
<trkpt lat="46.05185" lon="7.48729"><ele></ele><time>2016-7-15T3:15:58Z</time></trkpt>
<trkpt lat="46.05167" lon="7.48725"><ele></ele><time>2016-7-15T3:16:1Z</time></trkpt>
<trkpt lat="46.05153" lon="7.48711"><ele></ele><time>2016-7-15T3:16:4Z</time></trkpt>
<trkpt lat="46.05144" lon="7.48694"><ele></ele><time>2016-7-15T3:16:7Z</time></trkpt>
<trkpt lat="46.05134" lon="7.4869"><ele></ele><time>2016-7-15T3:16:10Z</time></trkpt>
<trkpt lat="46.05119" lon="7.48676"><ele></ele><time>2016-7-15T3:16:13Z</time></trkpt>
<trkpt lat="46.05109" lon="7.48671"><ele></ele><time>2016-7-15T3:16:16Z</time></trkpt>
<trkpt lat="46.05103" lon="7.48664"><ele></ele><time>2016-7-15T3:16:19Z</time></trkpt>
<trkpt lat="46.05092" lon="7.48653"><ele></ele><time>2016-7-15T3:16:22Z</time></trkpt>
<trkpt lat="46.05088" lon="7.48649"><ele></ele><time>2016-7-15T3:16:25Z</time></trkpt>
<trkpt lat="46.0508" lon="7.48644"><ele></ele><time>2016-7-15T3:16:28Z</time></trkpt>
<trkpt lat="46.05075" lon="7.48641"><ele></ele><time>2016-7-15T3:16:31Z</time></trkpt>
<trkpt lat="46.05072" lon="7.4864"><ele></ele><time>2016-7-15T3:16:34Z</time></trkpt>
<trkpt lat="46.05072" lon="7.48651"><ele></ele><time>2016-7-15T3:16:37Z</time></trkpt>
<trkpt lat="46.05073" lon="7.48658"><ele></ele><time>2016-7-15T3:16:40Z</time></trkpt>
<trkpt lat="46.05073" lon="7.48658"><ele></ele><time>2016-7-15T3:16:43Z</time></trkpt>
<trkpt lat="46.05069" lon="7.48655"><ele></ele><time>2016-7-15T3:16:46Z</time></trkpt>
<trkpt lat="46.05062" lon="7.48653"><ele></ele><time>2016-7-15T3:16:49Z</time></trkpt>
<trkpt lat="46.05044" lon="7.48651"><ele></ele><time>2016-7-15T3:16:52Z</time></trkpt>
<trkpt lat="46.05035" lon="7.48647"><ele></ele><time>2016-7-15T3:16:55Z</time></trkpt>
<trkpt lat="46.05015" lon="7.48642"><ele></ele><time>2016-7-15T3:16:58Z</time></trkpt>
<trkpt lat="46.04998" lon="7.48641"><ele></ele><time>2016-7-15T3:17:1Z</time></trkpt>
<trkpt lat="46.04996" lon="7.48639"><ele></ele><time>2016-7-15T3:17:4Z</time></trkpt>
<trkpt lat="46.04994" lon="7.48636"><ele></ele><time>2016-7-15T3:17:7Z</time></trkpt>
<trkpt lat="46.04992" lon="7.48633"><ele></ele><time>2016-7-15T3:17:10Z</time></trkpt>
<trkpt lat="46.0499" lon="7.48631"><ele></ele><time>2016-7-15T3:17:13Z</time></trkpt>
<trkpt lat="46.04986" lon="7.48625"><ele></ele><time>2016-7-15T3:17:16Z</time></trkpt>
<trkpt lat="46.04982" lon="7.48615"><ele></ele><time>2016-7-15T3:17:19Z</time></trkpt>
<trkpt lat="46.04982" lon="7.48615"><ele></ele><time>2016-7-15T3:17:22Z</time></trkpt>
<trkpt lat="46.04982" lon="7.4861"><ele></ele><time>2016-7-15T3:17:25Z</time></trkpt>
<trkpt lat="46.04981" lon="7.48608"><ele></ele><time>2016-7-15T3:17:28Z</time></trkpt>
<trkpt lat="46.04979" lon="7.48598"><ele></ele><time>2016-7-15T3:17:31Z</time></trkpt>
<trkpt lat="46.04971" lon="7.48575"><ele></ele><time>2016-7-15T3:17:34Z</time></trkpt>
<trkpt lat="46.04961" lon="7.48568"><ele></ele><time>2016-7-15T3:17:37Z</time></trkpt>
<trkpt lat="46.04954" lon="7.4856"><ele></ele><time>2016-7-15T3:17:40Z</time></trkpt>
<trkpt lat="46.04948" lon="7.4853"><ele></ele><time>2016-7-15T3:17:43Z</time></trkpt>
<trkpt lat="46.04944" lon="7.48516"><ele></ele><time>2016-7-15T3:17:46Z</time></trkpt>
<trkpt lat="46.04944" lon="7.48497"><ele></ele><time>2016-7-15T3:17:49Z</time></trkpt>
<trkpt lat="46.04944" lon="7.48489"><ele></ele><time>2016-7-15T3:17:52Z</time></trkpt>
<trkpt lat="46.04939" lon="7.48467"><ele></ele><time>2016-7-15T3:17:55Z</time></trkpt>
<trkpt lat="46.04941" lon="7.48464"><ele></ele><time>2016-7-15T3:17:58Z</time></trkpt>
<trkpt lat="46.04941" lon="7.48462"><ele></ele><time>2016-7-15T3:18:1Z</time></trkpt>
<trkpt lat="46.04942" lon="7.48462"><ele></ele><time>2016-7-15T3:18:4Z</time></trkpt>
<trkpt lat="46.04943" lon="7.48463"><ele></ele><time>2016-7-15T3:18:7Z</time></trkpt>
<trkpt lat="46.04944" lon="7.48464"><ele></ele><time>2016-7-15T3:18:10Z</time></trkpt>
<trkpt lat="46.04944" lon="7.48464"><ele></ele><time>2016-7-15T3:18:13Z</time></trkpt>
<trkpt lat="46.04945" lon="7.48465"><ele></ele><time>2016-7-15T3:18:16Z</time></trkpt>
<trkpt lat="46.04945" lon="7.48464"><ele></ele><time>2016-7-15T3:18:19Z</time></trkpt>
<trkpt lat="46.04944" lon="7.48464"><ele></ele><time>2016-7-15T3:18:22Z</time></trkpt>
<trkpt lat="46.04945" lon="7.48463"><ele></ele><time>2016-7-15T3:18:25Z</time></trkpt>
<trkpt lat="46.04946" lon="7.48464"><ele></ele><time>2016-7-15T3:18:28Z</time></trkpt>
<trkpt lat="46.04948" lon="7.48464"><ele></ele><time>2016-7-15T3:18:31Z</time></trkpt>
<trkpt lat="46.04948" lon="7.48465"><ele></ele><time>2016-7-15T3:18:34Z</time></trkpt>
<trkpt lat="46.04949" lon="7.48467"><ele></ele><time>2016-7-15T3:18:37Z</time></trkpt>
<trkpt lat="46.04947" lon="7.48462"><ele></ele><time>2016-7-15T3:18:40Z</time></trkpt>
<trkpt lat="46.04947" lon="7.48457"><ele></ele><time>2016-7-15T3:18:43Z</time></trkpt>
<trkpt lat="46.04947" lon="7.48454"><ele></ele><time>2016-7-15T3:18:46Z</time></trkpt>
<trkpt lat="46.04946" lon="7.48452"><ele></ele><time>2016-7-15T3:18:49Z</time></trkpt>
<trkpt lat="46.04949" lon="7.48453"><ele></ele><time>2016-7-15T3:18:52Z</time></trkpt>
<trkpt lat="46.04952" lon="7.48461"><ele></ele><time>2016-7-15T3:18:55Z</time></trkpt>
<trkpt lat="46.04953" lon="7.48463"><ele></ele><time>2016-7-15T3:18:58Z</time></trkpt>
<trkpt lat="46.04955" lon="7.48455"><ele></ele><time>2016-7-15T3:19:1Z</time></trkpt>
<trkpt lat="46.04956" lon="7.48452"><ele></ele><time>2016-7-15T3:19:4Z</time></trkpt>
<trkpt lat="46.04957" lon="7.48439"><ele></ele><time>2016-7-15T3:19:7Z</time></trkpt>
<trkpt lat="46.04959" lon="7.48415"><ele></ele><time>2016-7-15T3:19:10Z</time></trkpt>
<trkpt lat="46.04959" lon="7.48412"><ele></ele><time>2016-7-15T3:19:13Z</time></trkpt>
<trkpt lat="46.04963" lon="7.48398"><ele></ele><time>2016-7-15T3:19:16Z</time></trkpt>
<trkpt lat="46.04973" lon="7.48412"><ele></ele><time>2016-7-15T3:19:19Z</time></trkpt>
<trkpt lat="46.04985" lon="7.4843"><ele></ele><time>2016-7-15T3:19:22Z</time></trkpt>
<trkpt lat="46.04998" lon="7.4844"><ele></ele><time>2016-7-15T3:19:25Z</time></trkpt>
<trkpt lat="46.05009" lon="7.48419"><ele></ele><time>2016-7-15T3:19:28Z</time></trkpt>
<trkpt lat="46.05009" lon="7.48414"><ele></ele><time>2016-7-15T3:19:31Z</time></trkpt>
<trkpt lat="46.05012" lon="7.48406"><ele></ele><time>2016-7-15T3:19:34Z</time></trkpt>
<trkpt lat="46.05017" lon="7.48394"><ele></ele><time>2016-7-15T3:19:37Z</time></trkpt>
<trkpt lat="46.05018" lon="7.48387"><ele></ele><time>2016-7-15T3:19:40Z</time></trkpt>
<trkpt lat="46.0502" lon="7.48358"><ele></ele><time>2016-7-15T3:19:43Z</time></trkpt>
<trkpt lat="46.05026" lon="7.48347"><ele></ele><time>2016-7-15T3:19:46Z</time></trkpt>
<trkpt lat="46.05039" lon="7.48335"><ele></ele><time>2016-7-15T3:19:49Z</time></trkpt>
<trkpt lat="46.05048" lon="7.48319"><ele></ele><time>2016-7-15T3:19:52Z</time></trkpt>
<trkpt lat="46.0505" lon="7.48318"><ele></ele><time>2016-7-15T3:19:55Z</time></trkpt>
<trkpt lat="46.0505" lon="7.48317"><ele></ele><time>2016-7-15T3:19:58Z</time></trkpt>
<trkpt lat="46.05051" lon="7.48318"><ele></ele><time>2016-7-15T3:20:1Z</time></trkpt>
<trkpt lat="46.05051" lon="7.48318"><ele></ele><time>2016-7-15T3:20:4Z</time></trkpt>
<trkpt lat="46.0505" lon="7.48318"><ele></ele><time>2016-7-15T3:20:7Z</time></trkpt>
<trkpt lat="46.05049" lon="7.48317"><ele></ele><time>2016-7-15T3:20:10Z</time></trkpt>
<trkpt lat="46.05049" lon="7.48316"><ele></ele><time>2016-7-15T3:20:13Z</time></trkpt>
<trkpt lat="46.0505" lon="7.48317"><ele></ele><time>2016-7-15T3:20:16Z</time></trkpt>
<trkpt lat="46.0505" lon="7.48317"><ele></ele><time>2016-7-15T3:20:19Z</time></trkpt>
<trkpt lat="46.05053" lon="7.48317"><ele></ele><time>2016-7-15T3:20:22Z</time></trkpt>
<trkpt lat="46.05052" lon="7.48317"><ele></ele><time>2016-7-15T3:20:25Z</time></trkpt>
<trkpt lat="46.05052" lon="7.48317"><ele></ele><time>2016-7-15T3:20:28Z</time></trkpt>
<trkpt lat="46.05053" lon="7.48318"><ele></ele><time>2016-7-15T3:20:31Z</time></trkpt>
<trkpt lat="46.05052" lon="7.48317"><ele></ele><time>2016-7-15T3:20:34Z</time></trkpt>
<trkpt lat="46.05052" lon="7.48317"><ele></ele><time>2016-7-15T3:20:37Z</time></trkpt>
<trkpt lat="46.05052" lon="7.48317"><ele></ele><time>2016-7-15T3:20:40Z</time></trkpt>
<trkpt lat="46.05049" lon="7.48316"><ele></ele><time>2016-7-15T3:20:43Z</time></trkpt>
<trkpt lat="46.05048" lon="7.48317"><ele></ele><time>2016-7-15T3:20:46Z</time></trkpt>
<trkpt lat="46.05047" lon="7.48317"><ele></ele><time>2016-7-15T3:20:49Z</time></trkpt>
<trkpt lat="46.05047" lon="7.48317"><ele></ele><time>2016-7-15T3:20:52Z</time></trkpt>
<trkpt lat="46.05047" lon="7.48317"><ele></ele><time>2016-7-15T3:20:55Z</time></trkpt>
<trkpt lat="46.05047" lon="7.48317"><ele></ele><time>2016-7-15T3:20:58Z</time></trkpt>
<trkpt lat="46.0505" lon="7.48317"><ele></ele><time>2016-7-15T3:21:1Z</time></trkpt>
<trkpt lat="46.0505" lon="7.48317"><ele></ele><time>2016-7-15T3:21:4Z</time></trkpt>
<trkpt lat="46.05051" lon="7.48316"><ele></ele><time>2016-7-15T3:21:7Z</time></trkpt>
<trkpt lat="46.05051" lon="7.48316"><ele></ele><time>2016-7-15T3:21:10Z</time></trkpt>
<trkpt lat="46.05052" lon="7.48317"><ele></ele><time>2016-7-15T3:21:13Z</time></trkpt>
<trkpt lat="46.05052" lon="7.48317"><ele></ele><time>2016-7-15T3:21:16Z</time></trkpt>
<trkpt lat="46.05052" lon="7.48317"><ele></ele><time>2016-7-15T3:21:19Z</time></trkpt>
<trkpt lat="46.05052" lon="7.48317"><ele></ele><time>2016-7-15T3:21:22Z</time></trkpt>
<trkpt lat="46.05051" lon="7.48317"><ele></ele><time>2016-7-15T3:21:25Z</time></trkpt>
<trkpt lat="46.05051" lon="7.48317"><ele></ele><time>2016-7-15T3:21:28Z</time></trkpt>
<trkpt lat="46.05051" lon="7.48317"><ele></ele><time>2016-7-15T3:21:31Z</time></trkpt>
<trkpt lat="46.05052" lon="7.48317"><ele></ele><time>2016-7-15T3:21:34Z</time></trkpt>
<trkpt lat="46.05051" lon="7.48317"><ele></ele><time>2016-7-15T3:21:37Z</time></trkpt>
<trkpt lat="46.05051" lon="7.48316"><ele></ele><time>2016-7-15T3:21:40Z</time></trkpt>
<trkpt lat="46.05054" lon="7.48317"><ele></ele><time>2016-7-15T3:21:43Z</time></trkpt>
<trkpt lat="46.05054" lon="7.48317"><ele></ele><time>2016-7-15T3:21:46Z</time></trkpt>
<trkpt lat="46.05054" lon="7.48317"><ele></ele><time>2016-7-15T3:21:49Z</time></trkpt>
<trkpt lat="46.05054" lon="7.48317"><ele></ele><time>2016-7-15T3:21:52Z</time></trkpt>
<trkpt lat="46.05053" lon="7.48317"><ele></ele><time>2016-7-15T3:21:55Z</time></trkpt>
<trkpt lat="46.05053" lon="7.48317"><ele></ele><time>2016-7-15T3:21:58Z</time></trkpt>
<trkpt lat="46.05054" lon="7.48316"><ele></ele><time>2016-7-15T3:22:1Z</time></trkpt>
<trkpt lat="46.05053" lon="7.48316"><ele></ele><time>2016-7-15T3:22:4Z</time></trkpt>
<trkpt lat="46.05048" lon="7.48317"><ele></ele><time>2016-7-15T3:22:7Z</time></trkpt>
<trkpt lat="46.05048" lon="7.48317"><ele></ele><time>2016-7-15T3:22:10Z</time></trkpt>
<trkpt lat="46.05048" lon="7.48317"><ele></ele><time>2016-7-15T3:22:13Z</time></trkpt>
<trkpt lat="46.05047" lon="7.48317"><ele></ele><time>2016-7-15T3:22:16Z</time></trkpt>
<trkpt lat="46.05046" lon="7.48317"><ele></ele><time>2016-7-15T3:22:19Z</time></trkpt>
<trkpt lat="46.05046" lon="7.48317"><ele></ele><time>2016-7-15T3:22:22Z</time></trkpt>
<trkpt lat="46.05046" lon="7.48317"><ele></ele><time>2016-7-15T3:22:25Z</time></trkpt>
<trkpt lat="46.05045" lon="7.48319"><ele></ele><time>2016-7-15T3:22:28Z</time></trkpt>
<trkpt lat="46.05044" lon="7.48319"><ele></ele><time>2016-7-15T3:22:31Z</time></trkpt>
<trkpt lat="46.05041" lon="7.48318"><ele></ele><time>2016-7-15T3:22:34Z</time></trkpt>
<trkpt lat="46.05041" lon="7.48318"><ele></ele><time>2016-7-15T3:22:37Z</time></trkpt>
<trkpt lat="46.05044" lon="7.48318"><ele></ele><time>2016-7-15T3:22:40Z</time></trkpt>
<trkpt lat="46.05046" lon="7.48318"><ele></ele><time>2016-7-15T3:22:43Z</time></trkpt>
<trkpt lat="46.05046" lon="7.48318"><ele></ele><time>2016-7-15T3:22:46Z</time></trkpt>
<trkpt lat="46.05046" lon="7.48318"><ele></ele><time>2016-7-15T3:22:49Z</time></trkpt>
<trkpt lat="46.05046" lon="7.48318"><ele></ele><time>2016-7-15T3:22:52Z</time></trkpt>
<trkpt lat="46.05048" lon="7.48317"><ele></ele><time>2016-7-15T3:22:55Z</time></trkpt>
<trkpt lat="46.05052" lon="7.48317"><ele></ele><time>2016-7-15T3:22:58Z</time></trkpt>
<trkpt lat="46.05059" lon="7.48306"><ele></ele><time>2016-7-15T3:23:1Z</time></trkpt>
<trkpt lat="46.0506" lon="7.48305"><ele></ele><time>2016-7-15T3:23:4Z</time></trkpt>
<trkpt lat="46.0506" lon="7.48304"><ele></ele><time>2016-7-15T3:23:7Z</time></trkpt>
<trkpt lat="46.0506" lon="7.48304"><ele></ele><time>2016-7-15T3:23:10Z</time></trkpt>
<trkpt lat="46.05061" lon="7.48303"><ele></ele><time>2016-7-15T3:23:13Z</time></trkpt>
<trkpt lat="46.05063" lon="7.48294"><ele></ele><time>2016-7-15T3:23:16Z</time></trkpt>
<trkpt lat="46.05061" lon="7.4828"><ele></ele><time>2016-7-15T3:23:19Z</time></trkpt>
<trkpt lat="46.05055" lon="7.48284"><ele></ele><time>2016-7-15T3:23:22Z</time></trkpt>
<trkpt lat="46.05055" lon="7.48283"><ele></ele><time>2016-7-15T3:23:25Z</time></trkpt>
<trkpt lat="46.05052" lon="7.48281"><ele></ele><time>2016-7-15T3:23:28Z</time></trkpt>
<trkpt lat="46.05052" lon="7.48263"><ele></ele><time>2016-7-15T3:23:31Z</time></trkpt>
<trkpt lat="46.05052" lon="7.48258"><ele></ele><time>2016-7-15T3:23:34Z</time></trkpt>
<trkpt lat="46.0505" lon="7.48244"><ele></ele><time>2016-7-15T3:23:37Z</time></trkpt>
<trkpt lat="46.05047" lon="7.48219"><ele></ele><time>2016-7-15T3:23:40Z</time></trkpt>
<trkpt lat="46.05047" lon="7.48211"><ele></ele><time>2016-7-15T3:23:43Z</time></trkpt>
<trkpt lat="46.05045" lon="7.48185"><ele></ele><time>2016-7-15T3:23:46Z</time></trkpt>
<trkpt lat="46.05046" lon="7.48159"><ele></ele><time>2016-7-15T3:23:49Z</time></trkpt>
<trkpt lat="46.05049" lon="7.48152"><ele></ele><time>2016-7-15T3:23:52Z</time></trkpt>
<trkpt lat="46.05048" lon="7.48146"><ele></ele><time>2016-7-15T3:23:55Z</time></trkpt>
<trkpt lat="46.05046" lon="7.4812"><ele></ele><time>2016-7-15T3:23:58Z</time></trkpt>
<trkpt lat="46.05045" lon="7.48109"><ele></ele><time>2016-7-15T3:24:1Z</time></trkpt>
<trkpt lat="46.05045" lon="7.48084"><ele></ele><time>2016-7-15T3:24:4Z</time></trkpt>
<trkpt lat="46.05044" lon="7.48059"><ele></ele><time>2016-7-15T3:24:7Z</time></trkpt>
<trkpt lat="46.05044" lon="7.4805"><ele></ele><time>2016-7-15T3:24:10Z</time></trkpt>
<trkpt lat="46.05034" lon="7.48041"><ele></ele><time>2016-7-15T3:24:13Z</time></trkpt>
<trkpt lat="46.05033" lon="7.48042"><ele></ele><time>2016-7-15T3:24:16Z</time></trkpt>
<trkpt lat="46.05033" lon="7.48042"><ele></ele><time>2016-7-15T3:24:19Z</time></trkpt>
<trkpt lat="46.05031" lon="7.48036"><ele></ele><time>2016-7-15T3:24:22Z</time></trkpt>
<trkpt lat="46.05031" lon="7.48033"><ele></ele><time>2016-7-15T3:24:25Z</time></trkpt>
<trkpt lat="46.05028" lon="7.4802"><ele></ele><time>2016-7-15T3:24:28Z</time></trkpt>
<trkpt lat="46.05027" lon="7.48013"><ele></ele><time>2016-7-15T3:24:31Z</time></trkpt>
<trkpt lat="46.05026" lon="7.48009"><ele></ele><time>2016-7-15T3:24:34Z</time></trkpt>
<trkpt lat="46.05026" lon="7.48006"><ele></ele><time>2016-7-15T3:24:37Z</time></trkpt>
<trkpt lat="46.05018" lon="7.47982"><ele></ele><time>2016-7-15T3:24:40Z</time></trkpt>
<trkpt lat="46.05011" lon="7.47966"><ele></ele><time>2016-7-15T3:24:43Z</time></trkpt>
<trkpt lat="46.05009" lon="7.47952"><ele></ele><time>2016-7-15T3:24:46Z</time></trkpt>
<trkpt lat="46.05023" lon="7.47936"><ele></ele><time>2016-7-15T3:24:49Z</time></trkpt>
<trkpt lat="46.05033" lon="7.47935"><ele></ele><time>2016-7-15T3:24:52Z</time></trkpt>
<trkpt lat="46.05034" lon="7.47939"><ele></ele><time>2016-7-15T3:24:55Z</time></trkpt>
<trkpt lat="46.05034" lon="7.47939"><ele></ele><time>2016-7-15T3:24:58Z</time></trkpt>
<trkpt lat="46.05035" lon="7.4794"><ele></ele><time>2016-7-15T3:25:1Z</time></trkpt>
<trkpt lat="46.05036" lon="7.4794"><ele></ele><time>2016-7-15T3:25:4Z</time></trkpt>
<trkpt lat="46.05036" lon="7.47943"><ele></ele><time>2016-7-15T3:25:7Z</time></trkpt>
<trkpt lat="46.05037" lon="7.47942"><ele></ele><time>2016-7-15T3:25:10Z</time></trkpt>
<trkpt lat="46.05037" lon="7.47942"><ele></ele><time>2016-7-15T3:25:13Z</time></trkpt>
<trkpt lat="46.05037" lon="7.47941"><ele></ele><time>2016-7-15T3:25:16Z</time></trkpt>
<trkpt lat="46.05037" lon="7.47942"><ele></ele><time>2016-7-15T3:25:19Z</time></trkpt>
<trkpt lat="46.05036" lon="7.47941"><ele></ele><time>2016-7-15T3:25:22Z</time></trkpt>
<trkpt lat="46.05036" lon="7.47941"><ele></ele><time>2016-7-15T3:25:25Z</time></trkpt>
<trkpt lat="46.05035" lon="7.47941"><ele></ele><time>2016-7-15T3:25:28Z</time></trkpt>
<trkpt lat="46.05035" lon="7.47941"><ele></ele><time>2016-7-15T3:25:31Z</time></trkpt>
<trkpt lat="46.05035" lon="7.47941"><ele></ele><time>2016-7-15T3:25:34Z</time></trkpt>
<trkpt lat="46.05035" lon="7.47941"><ele></ele><time>2016-7-15T3:25:37Z</time></trkpt>
<trkpt lat="46.05035" lon="7.47941"><ele></ele><time>2016-7-15T3:25:40Z</time></trkpt>
<trkpt lat="46.05034" lon="7.47941"><ele></ele><time>2016-7-15T3:25:43Z</time></trkpt>
<trkpt lat="46.05034" lon="7.47941"><ele></ele><time>2016-7-15T3:25:46Z</time></trkpt>
<trkpt lat="46.05034" lon="7.47942"><ele></ele><time>2016-7-15T3:25:49Z</time></trkpt>
<trkpt lat="46.05035" lon="7.47942"><ele></ele><time>2016-7-15T3:25:52Z</time></trkpt>
<trkpt lat="46.05035" lon="7.47941"><ele></ele><time>2016-7-15T3:25:55Z</time></trkpt>
<trkpt lat="46.05036" lon="7.47943"><ele></ele><time>2016-7-15T3:25:58Z</time></trkpt>
<trkpt lat="46.05036" lon="7.47943"><ele></ele><time>2016-7-15T3:26:1Z</time></trkpt>
<trkpt lat="46.05036" lon="7.47942"><ele></ele><time>2016-7-15T3:26:4Z</time></trkpt>
<trkpt lat="46.05036" lon="7.47942"><ele></ele><time>2016-7-15T3:26:7Z</time></trkpt>
<trkpt lat="46.05036" lon="7.47941"><ele></ele><time>2016-7-15T3:26:10Z</time></trkpt>
<trkpt lat="46.05036" lon="7.47941"><ele></ele><time>2016-7-15T3:26:13Z</time></trkpt>
<trkpt lat="46.05035" lon="7.47943"><ele></ele><time>2016-7-15T3:26:16Z</time></trkpt>
<trkpt lat="46.05035" lon="7.47943"><ele></ele><time>2016-7-15T3:26:19Z</time></trkpt>
<trkpt lat="46.05036" lon="7.47943"><ele></ele><time>2016-7-15T3:26:22Z</time></trkpt>
<trkpt lat="46.05032" lon="7.47946"><ele></ele><time>2016-7-15T3:26:25Z</time></trkpt>
<trkpt lat="46.05033" lon="7.47945"><ele></ele><time>2016-7-15T3:26:28Z</time></trkpt>
<trkpt lat="46.05033" lon="7.47945"><ele></ele><time>2016-7-15T3:26:31Z</time></trkpt>
<trkpt lat="46.05033" lon="7.47946"><ele></ele><time>2016-7-15T3:26:34Z</time></trkpt>
<trkpt lat="46.05033" lon="7.47945"><ele></ele><time>2016-7-15T3:26:37Z</time></trkpt>
<trkpt lat="46.05035" lon="7.47945"><ele></ele><time>2016-7-15T3:26:40Z</time></trkpt>
<trkpt lat="46.05036" lon="7.47943"><ele></ele><time>2016-7-15T3:26:43Z</time></trkpt>
<trkpt lat="46.05036" lon="7.47941"><ele></ele><time>2016-7-15T3:26:46Z</time></trkpt>
<trkpt lat="46.05036" lon="7.47941"><ele></ele><time>2016-7-15T3:26:49Z</time></trkpt>
<trkpt lat="46.05035" lon="7.47941"><ele></ele><time>2016-7-15T3:26:52Z</time></trkpt>
<trkpt lat="46.05035" lon="7.4794"><ele></ele><time>2016-7-15T3:26:55Z</time></trkpt>
<trkpt lat="46.05035" lon="7.47939"><ele></ele><time>2016-7-15T3:26:58Z</time></trkpt>
<trkpt lat="46.05036" lon="7.47941"><ele></ele><time>2016-7-15T3:27:1Z</time></trkpt>
<trkpt lat="46.05036" lon="7.47944"><ele></ele><time>2016-7-15T3:27:4Z</time></trkpt>
<trkpt lat="46.05035" lon="7.47944"><ele></ele><time>2016-7-15T3:27:7Z</time></trkpt>
<trkpt lat="46.05035" lon="7.47943"><ele></ele><time>2016-7-15T3:27:10Z</time></trkpt>
<trkpt lat="46.05036" lon="7.47946"><ele></ele><time>2016-7-15T3:27:13Z</time></trkpt>
<trkpt lat="46.05035" lon="7.47942"><ele></ele><time>2016-7-15T3:27:16Z</time></trkpt>
<trkpt lat="46.05035" lon="7.47941"><ele></ele><time>2016-7-15T3:27:19Z</time></trkpt>
<trkpt lat="46.05034" lon="7.4794"><ele></ele><time>2016-7-15T3:27:22Z</time></trkpt>
<trkpt lat="46.05036" lon="7.47942"><ele></ele><time>2016-7-15T3:27:25Z</time></trkpt>
<trkpt lat="46.05037" lon="7.47942"><ele></ele><time>2016-7-15T3:27:28Z</time></trkpt>
<trkpt lat="46.05038" lon="7.47941"><ele></ele><time>2016-7-15T3:27:31Z</time></trkpt>
<trkpt lat="46.05038" lon="7.47941"><ele></ele><time>2016-7-15T3:27:34Z</time></trkpt>
<trkpt lat="46.05038" lon="7.47942"><ele></ele><time>2016-7-15T3:27:37Z</time></trkpt>
<trkpt lat="46.05037" lon="7.47942"><ele></ele><time>2016-7-15T3:27:40Z</time></trkpt>
<trkpt lat="46.05037" lon="7.47943"><ele></ele><time>2016-7-15T3:27:43Z</time></trkpt>
<trkpt lat="46.05036" lon="7.47943"><ele></ele><time>2016-7-15T3:27:46Z</time></trkpt>
<trkpt lat="46.05037" lon="7.47941"><ele></ele><time>2016-7-15T3:27:49Z</time></trkpt>
<trkpt lat="46.05036" lon="7.47941"><ele></ele><time>2016-7-15T3:27:52Z</time></trkpt>
<trkpt lat="46.05036" lon="7.47942"><ele></ele><time>2016-7-15T3:27:55Z</time></trkpt>
<trkpt lat="46.05037" lon="7.47943"><ele></ele><time>2016-7-15T3:27:58Z</time></trkpt>
<trkpt lat="46.05037" lon="7.47942"><ele></ele><time>2016-7-15T3:28:1Z</time></trkpt>
<trkpt lat="46.05037" lon="7.47942"><ele></ele><time>2016-7-15T3:28:4Z</time></trkpt>
<trkpt lat="46.05037" lon="7.47942"><ele></ele><time>2016-7-15T3:28:7Z</time></trkpt>
<trkpt lat="46.05036" lon="7.47941"><ele></ele><time>2016-7-15T3:28:10Z</time></trkpt>
<trkpt lat="46.05035" lon="7.47942"><ele></ele><time>2016-7-15T3:28:13Z</time></trkpt>
<trkpt lat="46.05036" lon="7.47941"><ele></ele><time>2016-7-15T3:28:16Z</time></trkpt>
<trkpt lat="46.05036" lon="7.4794"><ele></ele><time>2016-7-15T3:28:19Z</time></trkpt>
<trkpt lat="46.05036" lon="7.47939"><ele></ele><time>2016-7-15T3:28:22Z</time></trkpt>
<trkpt lat="46.05036" lon="7.47942"><ele></ele><time>2016-7-15T3:28:25Z</time></trkpt>
<trkpt lat="46.05036" lon="7.47942"><ele></ele><time>2016-7-15T3:28:28Z</time></trkpt>
<trkpt lat="46.05036" lon="7.47943"><ele></ele><time>2016-7-15T3:28:31Z</time></trkpt>
<trkpt lat="46.05035" lon="7.47943"><ele></ele><time>2016-7-15T3:28:34Z</time></trkpt>
<trkpt lat="46.05036" lon="7.47942"><ele></ele><time>2016-7-15T3:28:37Z</time></trkpt>
<trkpt lat="46.05036" lon="7.47943"><ele></ele><time>2016-7-15T3:28:40Z</time></trkpt>
<trkpt lat="46.05034" lon="7.47943"><ele></ele><time>2016-7-15T3:28:43Z</time></trkpt>
<trkpt lat="46.05036" lon="7.47942"><ele></ele><time>2016-7-15T3:28:46Z</time></trkpt>
<trkpt lat="46.05035" lon="7.47942"><ele></ele><time>2016-7-15T3:28:49Z</time></trkpt>
<trkpt lat="46.05035" lon="7.47945"><ele></ele><time>2016-7-15T3:28:52Z</time></trkpt>
<trkpt lat="46.05034" lon="7.47946"><ele></ele><time>2016-7-15T3:28:55Z</time></trkpt>
<trkpt lat="46.05034" lon="7.47946"><ele></ele><time>2016-7-15T3:28:58Z</time></trkpt>
<trkpt lat="46.05035" lon="7.47947"><ele></ele><time>2016-7-15T3:29:1Z</time></trkpt>
<trkpt lat="46.05035" lon="7.47947"><ele></ele><time>2016-7-15T3:29:4Z</time></trkpt>
<trkpt lat="46.05035" lon="7.47947"><ele></ele><time>2016-7-15T3:29:7Z</time></trkpt>
<trkpt lat="46.05035" lon="7.47948"><ele></ele><time>2016-7-15T3:29:10Z</time></trkpt>
<trkpt lat="46.05035" lon="7.47945"><ele></ele><time>2016-7-15T3:29:13Z</time></trkpt>
<trkpt lat="46.05035" lon="7.47944"><ele></ele><time>2016-7-15T3:29:16Z</time></trkpt>
<trkpt lat="46.05035" lon="7.47942"><ele></ele><time>2016-7-15T3:29:19Z</time></trkpt>
<trkpt lat="46.05035" lon="7.47943"><ele></ele><time>2016-7-15T3:29:22Z</time></trkpt>
<trkpt lat="46.05036" lon="7.47943"><ele></ele><time>2016-7-15T3:29:25Z</time></trkpt>
<trkpt lat="46.05037" lon="7.47943"><ele></ele><time>2016-7-15T3:29:28Z</time></trkpt>
<trkpt lat="46.05032" lon="7.47944"><ele></ele><time>2016-7-15T3:29:31Z</time></trkpt>
<trkpt lat="46.05033" lon="7.47944"><ele></ele><time>2016-7-15T3:29:34Z</time></trkpt>
<trkpt lat="46.05033" lon="7.47944"><ele></ele><time>2016-7-15T3:29:37Z</time></trkpt>
<trkpt lat="46.05034" lon="7.47947"><ele></ele><time>2016-7-15T3:29:40Z</time></trkpt>
<trkpt lat="46.05034" lon="7.47949"><ele></ele><time>2016-7-15T3:29:43Z</time></trkpt>
<trkpt lat="46.05034" lon="7.47949"><ele></ele><time>2016-7-15T3:29:46Z</time></trkpt>
<trkpt lat="46.05037" lon="7.47949"><ele></ele><time>2016-7-15T3:29:49Z</time></trkpt>
<trkpt lat="46.05036" lon="7.47947"><ele></ele><time>2016-7-15T3:29:52Z</time></trkpt>
<trkpt lat="46.05036" lon="7.47944"><ele></ele><time>2016-7-15T3:29:55Z</time></trkpt>
<trkpt lat="46.05036" lon="7.47943"><ele></ele><time>2016-7-15T3:29:58Z</time></trkpt>
<trkpt lat="46.05036" lon="7.47942"><ele></ele><time>2016-7-15T3:30:1Z</time></trkpt>
<trkpt lat="46.05036" lon="7.47942"><ele></ele><time>2016-7-15T3:30:4Z</time></trkpt>
<trkpt lat="46.05036" lon="7.47942"><ele></ele><time>2016-7-15T3:30:7Z</time></trkpt>
<trkpt lat="46.05035" lon="7.47942"><ele></ele><time>2016-7-15T3:30:10Z</time></trkpt>
<trkpt lat="46.05035" lon="7.47942"><ele></ele><time>2016-7-15T3:30:13Z</time></trkpt>
<trkpt lat="46.05035" lon="7.47942"><ele></ele><time>2016-7-15T3:30:16Z</time></trkpt>
<trkpt lat="46.05035" lon="7.47943"><ele></ele><time>2016-7-15T3:30:19Z</time></trkpt>
<trkpt lat="46.05037" lon="7.47943"><ele></ele><time>2016-7-15T3:30:22Z</time></trkpt>
<trkpt lat="46.05037" lon="7.47943"><ele></ele><time>2016-7-15T3:30:25Z</time></trkpt>
<trkpt lat="46.05037" lon="7.47943"><ele></ele><time>2016-7-15T3:30:28Z</time></trkpt>
<trkpt lat="46.05037" lon="7.47944"><ele></ele><time>2016-7-15T3:30:31Z</time></trkpt>
<trkpt lat="46.05037" lon="7.47943"><ele></ele><time>2016-7-15T3:30:34Z</time></trkpt>
<trkpt lat="46.05037" lon="7.47942"><ele></ele><time>2016-7-15T3:30:37Z</time></trkpt>
<trkpt lat="46.05036" lon="7.47942"><ele></ele><time>2016-7-15T3:30:40Z</time></trkpt>
<trkpt lat="46.05036" lon="7.47942"><ele></ele><time>2016-7-15T3:30:43Z</time></trkpt>
<trkpt lat="46.05036" lon="7.47943"><ele></ele><time>2016-7-15T3:30:46Z</time></trkpt>
<trkpt lat="46.05036" lon="7.47942"><ele></ele><time>2016-7-15T3:30:49Z</time></trkpt>
<trkpt lat="46.05036" lon="7.47942"><ele></ele><time>2016-7-15T3:30:52Z</time></trkpt>
<trkpt lat="46.05036" lon="7.47942"><ele></ele><time>2016-7-15T3:30:55Z</time></trkpt>
<trkpt lat="46.05036" lon="7.4794"><ele></ele><time>2016-7-15T3:30:58Z</time></trkpt>
<trkpt lat="46.05036" lon="7.47941"><ele></ele><time>2016-7-15T3:31:1Z</time></trkpt>
<trkpt lat="46.05036" lon="7.47941"><ele></ele><time>2016-7-15T3:31:4Z</time></trkpt>
<trkpt lat="46.05035" lon="7.47941"><ele></ele><time>2016-7-15T3:31:7Z</time></trkpt>
<trkpt lat="46.05035" lon="7.47942"><ele></ele><time>2016-7-15T3:31:10Z</time></trkpt>
<trkpt lat="46.05035" lon="7.47943"><ele></ele><time>2016-7-15T3:31:13Z</time></trkpt>
<trkpt lat="46.05035" lon="7.47944"><ele></ele><time>2016-7-15T3:31:16Z</time></trkpt>
<trkpt lat="46.05035" lon="7.47944"><ele></ele><time>2016-7-15T3:31:19Z</time></trkpt>
<trkpt lat="46.05033" lon="7.47945"><ele></ele><time>2016-7-15T3:31:22Z</time></trkpt>
<trkpt lat="46.05034" lon="7.47946"><ele></ele><time>2016-7-15T3:31:25Z</time></trkpt>
<trkpt lat="46.05034" lon="7.47945"><ele></ele><time>2016-7-15T3:31:28Z</time></trkpt>
<trkpt lat="46.05034" lon="7.47944"><ele></ele><time>2016-7-15T3:31:31Z</time></trkpt>
<trkpt lat="46.05034" lon="7.47944"><ele></ele><time>2016-7-15T3:31:34Z</time></trkpt>
<trkpt lat="46.05034" lon="7.47944"><ele></ele><time>2016-7-15T3:31:37Z</time></trkpt>
<trkpt lat="46.05034" lon="7.47944"><ele></ele><time>2016-7-15T3:31:40Z</time></trkpt>
<trkpt lat="46.05035" lon="7.47944"><ele></ele><time>2016-7-15T3:31:43Z</time></trkpt>
<trkpt lat="46.05038" lon="7.47938"><ele></ele><time>2016-7-15T3:31:46Z</time></trkpt>
<trkpt lat="46.05042" lon="7.47937"><ele></ele><time>2016-7-15T3:31:49Z</time></trkpt>
<trkpt lat="46.05043" lon="7.47937"><ele></ele><time>2016-7-15T3:31:52Z</time></trkpt>
<trkpt lat="46.05046" lon="7.47938"><ele></ele><time>2016-7-15T3:31:55Z</time></trkpt>
<trkpt lat="46.05049" lon="7.47938"><ele></ele><time>2016-7-15T3:31:58Z</time></trkpt>
<trkpt lat="46.0505" lon="7.47938"><ele></ele><time>2016-7-15T3:32:1Z</time></trkpt>
<trkpt lat="46.05035" lon="7.4794"><ele></ele><time>2016-7-15T3:32:4Z</time></trkpt>
<trkpt lat="46.05037" lon="7.47941"><ele></ele><time>2016-7-15T3:32:7Z</time></trkpt>
<trkpt lat="46.05039" lon="7.47941"><ele></ele><time>2016-7-15T3:32:10Z</time></trkpt>
<trkpt lat="46.05042" lon="7.4794"><ele></ele><time>2016-7-15T3:32:13Z</time></trkpt>
<trkpt lat="46.0505" lon="7.47936"><ele></ele><time>2016-7-15T3:32:16Z</time></trkpt>
<trkpt lat="46.05054" lon="7.47939"><ele></ele><time>2016-7-15T3:32:19Z</time></trkpt>
<trkpt lat="46.05051" lon="7.47943"><ele></ele><time>2016-7-15T3:32:22Z</time></trkpt>
<trkpt lat="46.05051" lon="7.47943"><ele></ele><time>2016-7-15T3:32:25Z</time></trkpt>
<trkpt lat="46.05051" lon="7.47943"><ele></ele><time>2016-7-15T3:32:28Z</time></trkpt>
<trkpt lat="46.05058" lon="7.47945"><ele></ele><time>2016-7-15T3:32:31Z</time></trkpt>
<trkpt lat="46.05057" lon="7.47947"><ele></ele><time>2016-7-15T3:32:34Z</time></trkpt>
<trkpt lat="46.05057" lon="7.47947"><ele></ele><time>2016-7-15T3:32:37Z</time></trkpt>
<trkpt lat="46.05056" lon="7.47947"><ele></ele><time>2016-7-15T3:32:40Z</time></trkpt>
<trkpt lat="46.05055" lon="7.47941"><ele></ele><time>2016-7-15T3:32:43Z</time></trkpt>
<trkpt lat="46.05055" lon="7.47939"><ele></ele><time>2016-7-15T3:32:46Z</time></trkpt>
<trkpt lat="46.05046" lon="7.47936"><ele></ele><time>2016-7-15T3:32:49Z</time></trkpt>
<trkpt lat="46.05039" lon="7.47941"><ele></ele><time>2016-7-15T3:32:52Z</time></trkpt>
<trkpt lat="46.05034" lon="7.47942"><ele></ele><time>2016-7-15T3:32:55Z</time></trkpt>
<trkpt lat="46.05033" lon="7.47942"><ele></ele><time>2016-7-15T3:32:58Z</time></trkpt>
<trkpt lat="46.05032" lon="7.47942"><ele></ele><time>2016-7-15T3:33:1Z</time></trkpt>
<trkpt lat="46.05031" lon="7.47943"><ele></ele><time>2016-7-15T3:33:4Z</time></trkpt>
<trkpt lat="46.05021" lon="7.47941"><ele></ele><time>2016-7-15T3:33:7Z</time></trkpt>
<trkpt lat="46.05005" lon="7.4795"><ele></ele><time>2016-7-15T3:33:10Z</time></trkpt>
<trkpt lat="46.05003" lon="7.47951"><ele></ele><time>2016-7-15T3:33:13Z</time></trkpt>
<trkpt lat="46.04991" lon="7.47941"><ele></ele><time>2016-7-15T3:33:16Z</time></trkpt>
<trkpt lat="46.04992" lon="7.4794"><ele></ele><time>2016-7-15T3:33:19Z</time></trkpt>
<trkpt lat="46.04992" lon="7.47939"><ele></ele><time>2016-7-15T3:33:22Z</time></trkpt>
<trkpt lat="46.04995" lon="7.47938"><ele></ele><time>2016-7-15T3:33:25Z</time></trkpt>
<trkpt lat="46.05" lon="7.4794"><ele></ele><time>2016-7-15T3:33:28Z</time></trkpt>
<trkpt lat="46.05004" lon="7.47941"><ele></ele><time>2016-7-15T3:33:31Z</time></trkpt>
<trkpt lat="46.05005" lon="7.47942"><ele></ele><time>2016-7-15T3:33:34Z</time></trkpt>
<trkpt lat="46.05009" lon="7.47943"><ele></ele><time>2016-7-15T3:33:37Z</time></trkpt>
<trkpt lat="46.05012" lon="7.4794"><ele></ele><time>2016-7-15T3:33:40Z</time></trkpt>
<trkpt lat="46.05018" lon="7.47934"><ele></ele><time>2016-7-15T3:33:43Z</time></trkpt>
<trkpt lat="46.0502" lon="7.47933"><ele></ele><time>2016-7-15T3:33:46Z</time></trkpt>
<trkpt lat="46.05025" lon="7.47934"><ele></ele><time>2016-7-15T3:33:49Z</time></trkpt>
<trkpt lat="46.05028" lon="7.47933"><ele></ele><time>2016-7-15T3:33:52Z</time></trkpt>
<trkpt lat="46.05031" lon="7.47933"><ele></ele><time>2016-7-15T3:33:55Z</time></trkpt>
<trkpt lat="46.05033" lon="7.47933"><ele></ele><time>2016-7-15T3:33:58Z</time></trkpt>
<trkpt lat="46.05037" lon="7.47934"><ele></ele><time>2016-7-15T3:34:1Z</time></trkpt>
<trkpt lat="46.05035" lon="7.4794"><ele></ele><time>2016-7-15T3:34:4Z</time></trkpt>
<trkpt lat="46.05035" lon="7.4794"><ele></ele><time>2016-7-15T3:34:7Z</time></trkpt>
<trkpt lat="46.05037" lon="7.47939"><ele></ele><time>2016-7-15T3:34:10Z</time></trkpt>
<trkpt lat="46.05037" lon="7.47939"><ele></ele><time>2016-7-15T3:34:13Z</time></trkpt>
<trkpt lat="46.05038" lon="7.47939"><ele></ele><time>2016-7-15T3:34:16Z</time></trkpt>
<trkpt lat="46.05038" lon="7.4794"><ele></ele><time>2016-7-15T3:34:19Z</time></trkpt>
<trkpt lat="46.05038" lon="7.4794"><ele></ele><time>2016-7-15T3:34:22Z</time></trkpt>
<trkpt lat="46.05038" lon="7.4794"><ele></ele><time>2016-7-15T3:34:25Z</time></trkpt>
<trkpt lat="46.05038" lon="7.4794"><ele></ele><time>2016-7-15T3:34:28Z</time></trkpt>
<trkpt lat="46.05038" lon="7.4794"><ele></ele><time>2016-7-15T3:34:31Z</time></trkpt>
<trkpt lat="46.05038" lon="7.47941"><ele></ele><time>2016-7-15T3:34:34Z</time></trkpt>
<trkpt lat="46.05038" lon="7.47942"><ele></ele><time>2016-7-15T3:34:37Z</time></trkpt>
<trkpt lat="46.05038" lon="7.47943"><ele></ele><time>2016-7-15T3:34:40Z</time></trkpt>
<trkpt lat="46.05039" lon="7.47942"><ele></ele><time>2016-7-15T3:34:43Z</time></trkpt>
<trkpt lat="46.05038" lon="7.47944"><ele></ele><time>2016-7-15T3:34:46Z</time></trkpt>
<trkpt lat="46.05038" lon="7.47944"><ele></ele><time>2016-7-15T3:34:49Z</time></trkpt>
<trkpt lat="46.05038" lon="7.47944"><ele></ele><time>2016-7-15T3:34:52Z</time></trkpt>
<trkpt lat="46.05038" lon="7.47944"><ele></ele><time>2016-7-15T3:34:55Z</time></trkpt>
<trkpt lat="46.05035" lon="7.47946"><ele></ele><time>2016-7-15T3:34:58Z</time></trkpt>
<trkpt lat="46.05037" lon="7.47943"><ele></ele><time>2016-7-15T3:35:1Z</time></trkpt>
<trkpt lat="46.05036" lon="7.47942"><ele></ele><time>2016-7-15T3:35:4Z</time></trkpt>
<trkpt lat="46.05036" lon="7.47943"><ele></ele><time>2016-7-15T3:35:7Z</time></trkpt>
<trkpt lat="46.05036" lon="7.47943"><ele></ele><time>2016-7-15T3:35:10Z</time></trkpt>
<trkpt lat="46.05041" lon="7.47945"><ele></ele><time>2016-7-15T3:35:13Z</time></trkpt>
<trkpt lat="46.0504" lon="7.47944"><ele></ele><time>2016-7-15T3:35:16Z</time></trkpt>
<trkpt lat="46.05037" lon="7.47942"><ele></ele><time>2016-7-15T3:35:19Z</time></trkpt>
<trkpt lat="46.05036" lon="7.47943"><ele></ele><time>2016-7-15T3:35:22Z</time></trkpt>
<trkpt lat="46.05036" lon="7.47944"><ele></ele><time>2016-7-15T3:35:25Z</time></trkpt>
<trkpt lat="46.05037" lon="7.47944"><ele></ele><time>2016-7-15T3:35:28Z</time></trkpt>
<trkpt lat="46.05039" lon="7.47942"><ele></ele><time>2016-7-15T3:35:31Z</time></trkpt>
<trkpt lat="46.0504" lon="7.47942"><ele></ele><time>2016-7-15T3:35:34Z</time></trkpt>
<trkpt lat="46.05039" lon="7.4794"><ele></ele><time>2016-7-15T3:35:37Z</time></trkpt>
<trkpt lat="46.05037" lon="7.4794"><ele></ele><time>2016-7-15T3:35:40Z</time></trkpt>
<trkpt lat="46.05036" lon="7.4794"><ele></ele><time>2016-7-15T3:35:43Z</time></trkpt>
<trkpt lat="46.05032" lon="7.47943"><ele></ele><time>2016-7-15T3:35:46Z</time></trkpt>
<trkpt lat="46.05032" lon="7.47944"><ele></ele><time>2016-7-15T3:35:49Z</time></trkpt>
<trkpt lat="46.05032" lon="7.47945"><ele></ele><time>2016-7-15T3:35:52Z</time></trkpt>
<trkpt lat="46.05033" lon="7.47945"><ele></ele><time>2016-7-15T3:35:55Z</time></trkpt>
<trkpt lat="46.05033" lon="7.47945"><ele></ele><time>2016-7-15T3:35:58Z</time></trkpt>
<trkpt lat="46.05033" lon="7.47944"><ele></ele><time>2016-7-15T3:36:1Z</time></trkpt>
<trkpt lat="46.05033" lon="7.47944"><ele></ele><time>2016-7-15T3:36:4Z</time></trkpt>
<trkpt lat="46.05033" lon="7.47944"><ele></ele><time>2016-7-15T3:36:7Z</time></trkpt>
<trkpt lat="46.05033" lon="7.47944"><ele></ele><time>2016-7-15T3:36:10Z</time></trkpt>
<trkpt lat="46.05025" lon="7.47943"><ele></ele><time>2016-7-15T3:36:13Z</time></trkpt>
<trkpt lat="46.05025" lon="7.47942"><ele></ele><time>2016-7-15T3:36:16Z</time></trkpt>
<trkpt lat="46.05009" lon="7.47948"><ele></ele><time>2016-7-15T3:36:19Z</time></trkpt>
<trkpt lat="46.05005" lon="7.47961"><ele></ele><time>2016-7-15T3:36:22Z</time></trkpt>
<trkpt lat="46.05015" lon="7.47978"><ele></ele><time>2016-7-15T3:36:25Z</time></trkpt>
<trkpt lat="46.05024" lon="7.48012"><ele></ele><time>2016-7-15T3:36:28Z</time></trkpt>
<trkpt lat="46.05031" lon="7.48035"><ele></ele><time>2016-7-15T3:36:31Z</time></trkpt>
<trkpt lat="46.05031" lon="7.48038"><ele></ele><time>2016-7-15T3:36:34Z</time></trkpt>
<trkpt lat="46.05031" lon="7.48039"><ele></ele><time>2016-7-15T3:36:37Z</time></trkpt>
<trkpt lat="46.05031" lon="7.48039"><ele></ele><time>2016-7-15T3:36:40Z</time></trkpt>
<trkpt lat="46.05031" lon="7.48042"><ele></ele><time>2016-7-15T3:36:43Z</time></trkpt>
<trkpt lat="46.05031" lon="7.48043"><ele></ele><time>2016-7-15T3:36:46Z</time></trkpt>
<trkpt lat="46.05043" lon="7.4806"><ele></ele><time>2016-7-15T3:36:49Z</time></trkpt>
<trkpt lat="46.05041" lon="7.48074"><ele></ele><time>2016-7-15T3:36:52Z</time></trkpt>
<trkpt lat="46.05045" lon="7.48091"><ele></ele><time>2016-7-15T3:36:55Z</time></trkpt>
<trkpt lat="46.05046" lon="7.48098"><ele></ele><time>2016-7-15T3:36:58Z</time></trkpt>
<trkpt lat="46.05051" lon="7.48127"><ele></ele><time>2016-7-15T3:37:1Z</time></trkpt>
<trkpt lat="46.05055" lon="7.48143"><ele></ele><time>2016-7-15T3:37:4Z</time></trkpt>
<trkpt lat="46.05057" lon="7.4815"><ele></ele><time>2016-7-15T3:37:7Z</time></trkpt>
<trkpt lat="46.05069" lon="7.48173"><ele></ele><time>2016-7-15T3:37:10Z</time></trkpt>
<trkpt lat="46.05083" lon="7.48186"><ele></ele><time>2016-7-15T3:37:13Z</time></trkpt>
<trkpt lat="46.05087" lon="7.48191"><ele></ele><time>2016-7-15T3:37:16Z</time></trkpt>
<trkpt lat="46.05096" lon="7.48212"><ele></ele><time>2016-7-15T3:37:19Z</time></trkpt>
<trkpt lat="46.05097" lon="7.4822"><ele></ele><time>2016-7-15T3:37:22Z</time></trkpt>
<trkpt lat="46.05108" lon="7.48243"><ele></ele><time>2016-7-15T3:37:25Z</time></trkpt>
<trkpt lat="46.05112" lon="7.4825"><ele></ele><time>2016-7-15T3:37:28Z</time></trkpt>
<trkpt lat="46.05112" lon="7.48253"><ele></ele><time>2016-7-15T3:37:31Z</time></trkpt>
<trkpt lat="46.05113" lon="7.48252"><ele></ele><time>2016-7-15T3:37:34Z</time></trkpt>
<trkpt lat="46.05112" lon="7.48252"><ele></ele><time>2016-7-15T3:37:37Z</time></trkpt>
<trkpt lat="46.05114" lon="7.48255"><ele></ele><time>2016-7-15T3:37:40Z</time></trkpt>
<trkpt lat="46.05113" lon="7.48255"><ele></ele><time>2016-7-15T3:37:43Z</time></trkpt>
<trkpt lat="46.05107" lon="7.48253"><ele></ele><time>2016-7-15T3:37:46Z</time></trkpt>
<trkpt lat="46.05107" lon="7.48252"><ele></ele><time>2016-7-15T3:37:49Z</time></trkpt>
<trkpt lat="46.05108" lon="7.48253"><ele></ele><time>2016-7-15T3:37:52Z</time></trkpt>
<trkpt lat="46.05104" lon="7.48255"><ele></ele><time>2016-7-15T3:37:55Z</time></trkpt>
<trkpt lat="46.05103" lon="7.48255"><ele></ele><time>2016-7-15T3:37:58Z</time></trkpt>
<trkpt lat="46.05104" lon="7.48255"><ele></ele><time>2016-7-15T3:38:1Z</time></trkpt>
<trkpt lat="46.05105" lon="7.48259"><ele></ele><time>2016-7-15T3:38:4Z</time></trkpt>
<trkpt lat="46.05105" lon="7.48259"><ele></ele><time>2016-7-15T3:38:7Z</time></trkpt>
<trkpt lat="46.05104" lon="7.48257"><ele></ele><time>2016-7-15T3:38:10Z</time></trkpt>
<trkpt lat="46.05104" lon="7.48254"><ele></ele><time>2016-7-15T3:38:13Z</time></trkpt>
<trkpt lat="46.05104" lon="7.48254"><ele></ele><time>2016-7-15T3:38:16Z</time></trkpt>
<trkpt lat="46.05107" lon="7.48257"><ele></ele><time>2016-7-15T3:38:19Z</time></trkpt>
<trkpt lat="46.05109" lon="7.48258"><ele></ele><time>2016-7-15T3:38:22Z</time></trkpt>
<trkpt lat="46.05109" lon="7.48255"><ele></ele><time>2016-7-15T3:38:25Z</time></trkpt>
<trkpt lat="46.05103" lon="7.48241"><ele></ele><time>2016-7-15T3:38:28Z</time></trkpt>
<trkpt lat="46.05102" lon="7.48237"><ele></ele><time>2016-7-15T3:38:31Z</time></trkpt>
<trkpt lat="46.05103" lon="7.48236"><ele></ele><time>2016-7-15T3:38:34Z</time></trkpt>
<trkpt lat="46.05108" lon="7.48247"><ele></ele><time>2016-7-15T3:38:37Z</time></trkpt>
<trkpt lat="46.05115" lon="7.48254"><ele></ele><time>2016-7-15T3:38:40Z</time></trkpt>
<trkpt lat="46.05115" lon="7.48254"><ele></ele><time>2016-7-15T3:38:43Z</time></trkpt>
<trkpt lat="46.05115" lon="7.48249"><ele></ele><time>2016-7-15T3:38:46Z</time></trkpt>
<trkpt lat="46.05118" lon="7.48252"><ele></ele><time>2016-7-15T3:38:49Z</time></trkpt>
<trkpt lat="46.05115" lon="7.48253"><ele></ele><time>2016-7-15T3:38:52Z</time></trkpt>
<trkpt lat="46.05115" lon="7.48253"><ele></ele><time>2016-7-15T3:38:55Z</time></trkpt>
<trkpt lat="46.05113" lon="7.48255"><ele></ele><time>2016-7-15T3:38:58Z</time></trkpt>
<trkpt lat="46.05114" lon="7.48255"><ele></ele><time>2016-7-15T3:39:1Z</time></trkpt>
<trkpt lat="46.05114" lon="7.48256"><ele></ele><time>2016-7-15T3:39:4Z</time></trkpt>
<trkpt lat="46.05116" lon="7.48255"><ele></ele><time>2016-7-15T3:39:7Z</time></trkpt>
<trkpt lat="46.05115" lon="7.48253"><ele></ele><time>2016-7-15T3:39:10Z</time></trkpt>
<trkpt lat="46.05114" lon="7.48253"><ele></ele><time>2016-7-15T3:39:13Z</time></trkpt>
<trkpt lat="46.05115" lon="7.48255"><ele></ele><time>2016-7-15T3:39:16Z</time></trkpt>
<trkpt lat="46.0512" lon="7.48261"><ele></ele><time>2016-7-15T3:39:19Z</time></trkpt>
<trkpt lat="46.05124" lon="7.48263"><ele></ele><time>2016-7-15T3:39:22Z</time></trkpt>
<trkpt lat="46.0514" lon="7.48274"><ele></ele><time>2016-7-15T3:39:25Z</time></trkpt>
<trkpt lat="46.05147" lon="7.48279"><ele></ele><time>2016-7-15T3:39:28Z</time></trkpt>
<trkpt lat="46.05155" lon="7.48284"><ele></ele><time>2016-7-15T3:39:31Z</time></trkpt>
<trkpt lat="46.05157" lon="7.48285"><ele></ele><time>2016-7-15T3:39:34Z</time></trkpt>
<trkpt lat="46.05163" lon="7.48288"><ele></ele><time>2016-7-15T3:39:37Z</time></trkpt>
<trkpt lat="46.05175" lon="7.48296"><ele></ele><time>2016-7-15T3:39:40Z</time></trkpt>
<trkpt lat="46.05183" lon="7.48298"><ele></ele><time>2016-7-15T3:39:43Z</time></trkpt>
<trkpt lat="46.0519" lon="7.48301"><ele></ele><time>2016-7-15T3:39:46Z</time></trkpt>
<trkpt lat="46.052" lon="7.48304"><ele></ele><time>2016-7-15T3:39:49Z</time></trkpt>
<trkpt lat="46.05208" lon="7.48302"><ele></ele><time>2016-7-15T3:39:52Z</time></trkpt>
<trkpt lat="46.05211" lon="7.48302"><ele></ele><time>2016-7-15T3:39:55Z</time></trkpt>
<trkpt lat="46.05216" lon="7.48297"><ele></ele><time>2016-7-15T3:39:58Z</time></trkpt>
<trkpt lat="46.05216" lon="7.4829"><ele></ele><time>2016-7-15T3:40:1Z</time></trkpt>
<trkpt lat="46.05217" lon="7.48289"><ele></ele><time>2016-7-15T3:40:4Z</time></trkpt>
<trkpt lat="46.05233" lon="7.48296"><ele></ele><time>2016-7-15T3:40:7Z</time></trkpt>
<trkpt lat="46.05246" lon="7.48296"><ele></ele><time>2016-7-15T3:40:10Z</time></trkpt>
<trkpt lat="46.05246" lon="7.483"><ele></ele><time>2016-7-15T3:40:13Z</time></trkpt>
<trkpt lat="46.05245" lon="7.483"><ele></ele><time>2016-7-15T3:40:16Z</time></trkpt>
<trkpt lat="46.05246" lon="7.48302"><ele></ele><time>2016-7-15T3:40:19Z</time></trkpt>
<trkpt lat="46.05246" lon="7.48303"><ele></ele><time>2016-7-15T3:40:22Z</time></trkpt>
<trkpt lat="46.05245" lon="7.48304"><ele></ele><time>2016-7-15T3:40:25Z</time></trkpt>
<trkpt lat="46.0524" lon="7.48306"><ele></ele><time>2016-7-15T3:40:28Z</time></trkpt>
<trkpt lat="46.0524" lon="7.48306"><ele></ele><time>2016-7-15T3:40:31Z</time></trkpt>
<trkpt lat="46.05239" lon="7.48306"><ele></ele><time>2016-7-15T3:40:34Z</time></trkpt>
<trkpt lat="46.05238" lon="7.48306"><ele></ele><time>2016-7-15T3:40:37Z</time></trkpt>
<trkpt lat="46.05238" lon="7.48306"><ele></ele><time>2016-7-15T3:40:40Z</time></trkpt>
<trkpt lat="46.05238" lon="7.48306"><ele></ele><time>2016-7-15T3:40:43Z</time></trkpt>
<trkpt lat="46.05242" lon="7.48304"><ele></ele><time>2016-7-15T3:40:46Z</time></trkpt>
<trkpt lat="46.05243" lon="7.48304"><ele></ele><time>2016-7-15T3:40:49Z</time></trkpt>
<trkpt lat="46.05244" lon="7.48303"><ele></ele><time>2016-7-15T3:40:52Z</time></trkpt>
<trkpt lat="46.05244" lon="7.48303"><ele></ele><time>2016-7-15T3:40:55Z</time></trkpt>
<trkpt lat="46.05245" lon="7.48301"><ele></ele><time>2016-7-15T3:40:58Z</time></trkpt>
<trkpt lat="46.05245" lon="7.48301"><ele></ele><time>2016-7-15T3:41:1Z</time></trkpt>
<trkpt lat="46.05244" lon="7.48302"><ele></ele><time>2016-7-15T3:41:4Z</time></trkpt>
<trkpt lat="46.05225" lon="7.48297"><ele></ele><time>2016-7-15T3:41:7Z</time></trkpt>
<trkpt lat="46.05219" lon="7.48292"><ele></ele><time>2016-7-15T3:41:10Z</time></trkpt>
<trkpt lat="46.05219" lon="7.48291"><ele></ele><time>2016-7-15T3:41:13Z</time></trkpt>
<trkpt lat="46.05227" lon="7.48296"><ele></ele><time>2016-7-15T3:41:16Z</time></trkpt>
<trkpt lat="46.05239" lon="7.48299"><ele></ele><time>2016-7-15T3:41:19Z</time></trkpt>
<trkpt lat="46.05242" lon="7.48299"><ele></ele><time>2016-7-15T3:41:22Z</time></trkpt>
<trkpt lat="46.05244" lon="7.483"><ele></ele><time>2016-7-15T3:41:25Z</time></trkpt>
<trkpt lat="46.05244" lon="7.48302"><ele></ele><time>2016-7-15T3:41:28Z</time></trkpt>
<trkpt lat="46.05247" lon="7.48302"><ele></ele><time>2016-7-15T3:41:31Z</time></trkpt>
<trkpt lat="46.05247" lon="7.48302"><ele></ele><time>2016-7-15T3:41:34Z</time></trkpt>
<trkpt lat="46.05248" lon="7.48301"><ele></ele><time>2016-7-15T3:41:37Z</time></trkpt>
<trkpt lat="46.05248" lon="7.483"><ele></ele><time>2016-7-15T3:41:40Z</time></trkpt>
<trkpt lat="46.05247" lon="7.48301"><ele></ele><time>2016-7-15T3:41:43Z</time></trkpt>
<trkpt lat="46.05245" lon="7.48304"><ele></ele><time>2016-7-15T3:41:46Z</time></trkpt>
<trkpt lat="46.05252" lon="7.48308"><ele></ele><time>2016-7-15T3:41:49Z</time></trkpt>
<trkpt lat="46.05268" lon="7.48321"><ele></ele><time>2016-7-15T3:41:52Z</time></trkpt>
<trkpt lat="46.0527" lon="7.48322"><ele></ele><time>2016-7-15T3:41:55Z</time></trkpt>
<trkpt lat="46.05287" lon="7.48324"><ele></ele><time>2016-7-15T3:41:58Z</time></trkpt>
<trkpt lat="46.05287" lon="7.48324"><ele></ele><time>2016-7-15T3:42:1Z</time></trkpt>
<trkpt lat="46.05288" lon="7.48325"><ele></ele><time>2016-7-15T3:42:4Z</time></trkpt>
<trkpt lat="46.05298" lon="7.48324"><ele></ele><time>2016-7-15T3:42:7Z</time></trkpt>
<trkpt lat="46.05301" lon="7.48324"><ele></ele><time>2016-7-15T3:42:10Z</time></trkpt>
<trkpt lat="46.05302" lon="7.48325"><ele></ele><time>2016-7-15T3:42:13Z</time></trkpt>
<trkpt lat="46.05303" lon="7.48326"><ele></ele><time>2016-7-15T3:42:16Z</time></trkpt>
<trkpt lat="46.05313" lon="7.48327"><ele></ele><time>2016-7-15T3:42:19Z</time></trkpt>
<trkpt lat="46.0533" lon="7.48336"><ele></ele><time>2016-7-15T3:42:22Z</time></trkpt>
<trkpt lat="46.05344" lon="7.48336"><ele></ele><time>2016-7-15T3:42:25Z</time></trkpt>
<trkpt lat="46.05346" lon="7.48334"><ele></ele><time>2016-7-15T3:42:28Z</time></trkpt>
<trkpt lat="46.05353" lon="7.48327"><ele></ele><time>2016-7-15T3:42:31Z</time></trkpt>
<trkpt lat="46.05354" lon="7.48325"><ele></ele><time>2016-7-15T3:42:34Z</time></trkpt>
<trkpt lat="46.05357" lon="7.48321"><ele></ele><time>2016-7-15T3:42:37Z</time></trkpt>
<trkpt lat="46.05357" lon="7.4832"><ele></ele><time>2016-7-15T3:42:40Z</time></trkpt>
<trkpt lat="46.0536" lon="7.48314"><ele></ele><time>2016-7-15T3:42:43Z</time></trkpt>
<trkpt lat="46.05362" lon="7.48313"><ele></ele><time>2016-7-15T3:42:46Z</time></trkpt>
<trkpt lat="46.05372" lon="7.4831"><ele></ele><time>2016-7-15T3:42:49Z</time></trkpt>
<trkpt lat="46.05381" lon="7.48313"><ele></ele><time>2016-7-15T3:42:52Z</time></trkpt>
<trkpt lat="46.0538" lon="7.48318"><ele></ele><time>2016-7-15T3:42:55Z</time></trkpt>
<trkpt lat="46.05383" lon="7.48322"><ele></ele><time>2016-7-15T3:42:58Z</time></trkpt>
<trkpt lat="46.05386" lon="7.48323"><ele></ele><time>2016-7-15T3:43:1Z</time></trkpt>
<trkpt lat="46.05389" lon="7.48331"><ele></ele><time>2016-7-15T3:43:4Z</time></trkpt>
<trkpt lat="46.05391" lon="7.48333"><ele></ele><time>2016-7-15T3:43:7Z</time></trkpt>
<trkpt lat="46.05393" lon="7.48335"><ele></ele><time>2016-7-15T3:43:10Z</time></trkpt>
<trkpt lat="46.05393" lon="7.48335"><ele></ele><time>2016-7-15T3:43:13Z</time></trkpt>
<trkpt lat="46.05394" lon="7.48335"><ele></ele><time>2016-7-15T3:43:16Z</time></trkpt>
<trkpt lat="46.05412" lon="7.48339"><ele></ele><time>2016-7-15T3:43:19Z</time></trkpt>
<trkpt lat="46.05414" lon="7.48339"><ele></ele><time>2016-7-15T3:43:22Z</time></trkpt>
<trkpt lat="46.05415" lon="7.48338"><ele></ele><time>2016-7-15T3:43:25Z</time></trkpt>
<trkpt lat="46.0542" lon="7.48338"><ele></ele><time>2016-7-15T3:43:28Z</time></trkpt>
<trkpt lat="46.05426" lon="7.48341"><ele></ele><time>2016-7-15T3:43:31Z</time></trkpt>
<trkpt lat="46.05435" lon="7.4834"><ele></ele><time>2016-7-15T3:43:34Z</time></trkpt>
<trkpt lat="46.05436" lon="7.48338"><ele></ele><time>2016-7-15T3:43:37Z</time></trkpt>
<trkpt lat="46.0544" lon="7.48336"><ele></ele><time>2016-7-15T3:43:40Z</time></trkpt>
<trkpt lat="46.05441" lon="7.48336"><ele></ele><time>2016-7-15T3:43:43Z</time></trkpt>
<trkpt lat="46.05453" lon="7.48337"><ele></ele><time>2016-7-15T3:43:46Z</time></trkpt>
<trkpt lat="46.05455" lon="7.48335"><ele></ele><time>2016-7-15T3:43:49Z</time></trkpt>
<trkpt lat="46.05455" lon="7.48333"><ele></ele><time>2016-7-15T3:43:52Z</time></trkpt>
<trkpt lat="46.05456" lon="7.48333"><ele></ele><time>2016-7-15T3:43:55Z</time></trkpt>
<trkpt lat="46.05459" lon="7.48332"><ele></ele><time>2016-7-15T3:43:58Z</time></trkpt>
<trkpt lat="46.05462" lon="7.48331"><ele></ele><time>2016-7-15T3:44:1Z</time></trkpt>
<trkpt lat="46.05472" lon="7.4833"><ele></ele><time>2016-7-15T3:44:4Z</time></trkpt>
<trkpt lat="46.05472" lon="7.4833"><ele></ele><time>2016-7-15T3:44:7Z</time></trkpt>
<trkpt lat="46.05482" lon="7.48327"><ele></ele><time>2016-7-15T3:44:10Z</time></trkpt>
<trkpt lat="46.05494" lon="7.48332"><ele></ele><time>2016-7-15T3:44:13Z</time></trkpt>
<trkpt lat="46.05494" lon="7.48332"><ele></ele><time>2016-7-15T3:44:16Z</time></trkpt>
<trkpt lat="46.05494" lon="7.48332"><ele></ele><time>2016-7-15T3:44:19Z</time></trkpt>
<trkpt lat="46.05508" lon="7.48332"><ele></ele><time>2016-7-15T3:44:22Z</time></trkpt>
<trkpt lat="46.05512" lon="7.48329"><ele></ele><time>2016-7-15T3:44:25Z</time></trkpt>
<trkpt lat="46.05513" lon="7.48328"><ele></ele><time>2016-7-15T3:44:28Z</time></trkpt>
<trkpt lat="46.05511" lon="7.48316"><ele></ele><time>2016-7-15T3:44:31Z</time></trkpt>
<trkpt lat="46.05527" lon="7.48309"><ele></ele><time>2016-7-15T3:44:34Z</time></trkpt>
<trkpt lat="46.05544" lon="7.48296"><ele></ele><time>2016-7-15T3:44:37Z</time></trkpt>
<trkpt lat="46.05546" lon="7.48295"><ele></ele><time>2016-7-15T3:44:40Z</time></trkpt>
<trkpt lat="46.05557" lon="7.48284"><ele></ele><time>2016-7-15T3:44:43Z</time></trkpt>
<trkpt lat="46.05563" lon="7.48279"><ele></ele><time>2016-7-15T3:44:46Z</time></trkpt>
<trkpt lat="46.05583" lon="7.4827"><ele></ele><time>2016-7-15T3:44:49Z</time></trkpt>
<trkpt lat="46.05588" lon="7.48268"><ele></ele><time>2016-7-15T3:44:52Z</time></trkpt>
<trkpt lat="46.05593" lon="7.48267"><ele></ele><time>2016-7-15T3:44:55Z</time></trkpt>
<trkpt lat="46.05607" lon="7.48266"><ele></ele><time>2016-7-15T3:44:58Z</time></trkpt>
<trkpt lat="46.05613" lon="7.48266"><ele></ele><time>2016-7-15T3:45:1Z</time></trkpt>
<trkpt lat="46.05631" lon="7.48275"><ele></ele><time>2016-7-15T3:45:4Z</time></trkpt>
<trkpt lat="46.05634" lon="7.48277"><ele></ele><time>2016-7-15T3:45:7Z</time></trkpt>
<trkpt lat="46.05645" lon="7.48286"><ele></ele><time>2016-7-15T3:45:10Z</time></trkpt>
<trkpt lat="46.05645" lon="7.48286"><ele></ele><time>2016-7-15T3:45:13Z</time></trkpt>
<trkpt lat="46.05658" lon="7.48302"><ele></ele><time>2016-7-15T3:45:16Z</time></trkpt>
<trkpt lat="46.05662" lon="7.48314"><ele></ele><time>2016-7-15T3:45:19Z</time></trkpt>
<trkpt lat="46.05669" lon="7.48316"><ele></ele><time>2016-7-15T3:45:22Z</time></trkpt>
<trkpt lat="46.05677" lon="7.48319"><ele></ele><time>2016-7-15T3:45:25Z</time></trkpt>
<trkpt lat="46.05682" lon="7.48323"><ele></ele><time>2016-7-15T3:45:28Z</time></trkpt>
<trkpt lat="46.05684" lon="7.48324"><ele></ele><time>2016-7-15T3:45:31Z</time></trkpt>
<trkpt lat="46.05689" lon="7.48324"><ele></ele><time>2016-7-15T3:45:34Z</time></trkpt>
<trkpt lat="46.05702" lon="7.48328"><ele></ele><time>2016-7-15T3:45:37Z</time></trkpt>
<trkpt lat="46.05704" lon="7.48327"><ele></ele><time>2016-7-15T3:45:40Z</time></trkpt>
<trkpt lat="46.05708" lon="7.48325"><ele></ele><time>2016-7-15T3:45:43Z</time></trkpt>
<trkpt lat="46.05718" lon="7.48327"><ele></ele><time>2016-7-15T3:45:46Z</time></trkpt>
<trkpt lat="46.0572" lon="7.48329"><ele></ele><time>2016-7-15T3:45:49Z</time></trkpt>
<trkpt lat="46.05729" lon="7.48336"><ele></ele><time>2016-7-15T3:45:52Z</time></trkpt>
<trkpt lat="46.05745" lon="7.48344"><ele></ele><time>2016-7-15T3:45:55Z</time></trkpt>
<trkpt lat="46.05746" lon="7.48344"><ele></ele><time>2016-7-15T3:45:58Z</time></trkpt>
<trkpt lat="46.05747" lon="7.48344"><ele></ele><time>2016-7-15T3:46:1Z</time></trkpt>
<trkpt lat="46.05764" lon="7.48343"><ele></ele><time>2016-7-15T3:46:4Z</time></trkpt>
<trkpt lat="46.05776" lon="7.48339"><ele></ele><time>2016-7-15T3:46:7Z</time></trkpt>
<trkpt lat="46.05784" lon="7.48339"><ele></ele><time>2016-7-15T3:46:10Z</time></trkpt>
<trkpt lat="46.05793" lon="7.48341"><ele></ele><time>2016-7-15T3:46:13Z</time></trkpt>
<trkpt lat="46.05805" lon="7.48349"><ele></ele><time>2016-7-15T3:46:16Z</time></trkpt>
<trkpt lat="46.0581" lon="7.48354"><ele></ele><time>2016-7-15T3:46:19Z</time></trkpt>
<trkpt lat="46.05815" lon="7.48359"><ele></ele><time>2016-7-15T3:46:22Z</time></trkpt>
<trkpt lat="46.05821" lon="7.48365"><ele></ele><time>2016-7-15T3:46:25Z</time></trkpt>
<trkpt lat="46.05845" lon="7.48396"><ele></ele><time>2016-7-15T3:46:28Z</time></trkpt>
<trkpt lat="46.05858" lon="7.48412"><ele></ele><time>2016-7-15T3:46:31Z</time></trkpt>
<trkpt lat="46.05863" lon="7.48438"><ele></ele><time>2016-7-15T3:46:34Z</time></trkpt>
<trkpt lat="46.0587" lon="7.48467"><ele></ele><time>2016-7-15T3:46:37Z</time></trkpt>
<trkpt lat="46.05873" lon="7.48494"><ele></ele><time>2016-7-15T3:46:40Z</time></trkpt>
<trkpt lat="46.05881" lon="7.4852"><ele></ele><time>2016-7-15T3:46:43Z</time></trkpt>
<trkpt lat="46.0589" lon="7.48541"><ele></ele><time>2016-7-15T3:46:46Z</time></trkpt>
<trkpt lat="46.05889" lon="7.48542"><ele></ele><time>2016-7-15T3:46:49Z</time></trkpt>
<trkpt lat="46.05891" lon="7.48559"><ele></ele><time>2016-7-15T3:46:52Z</time></trkpt>
<trkpt lat="46.05889" lon="7.48562"><ele></ele><time>2016-7-15T3:46:55Z</time></trkpt>
<trkpt lat="46.059" lon="7.4858"><ele></ele><time>2016-7-15T3:46:58Z</time></trkpt>
<trkpt lat="46.05905" lon="7.48592"><ele></ele><time>2016-7-15T3:47:1Z</time></trkpt>
<trkpt lat="46.05918" lon="7.4861"><ele></ele><time>2016-7-15T3:47:4Z</time></trkpt>
<trkpt lat="46.0592" lon="7.48614"><ele></ele><time>2016-7-15T3:47:7Z</time></trkpt>
<trkpt lat="46.05926" lon="7.48641"><ele></ele><time>2016-7-15T3:47:10Z</time></trkpt>
<trkpt lat="46.05928" lon="7.48646"><ele></ele><time>2016-7-15T3:47:13Z</time></trkpt>
<trkpt lat="46.05924" lon="7.4865"><ele></ele><time>2016-7-15T3:47:16Z</time></trkpt>
<trkpt lat="46.0592" lon="7.48651"><ele></ele><time>2016-7-15T3:47:19Z</time></trkpt>
<trkpt lat="46.05915" lon="7.48654"><ele></ele><time>2016-7-15T3:47:22Z</time></trkpt>
<trkpt lat="46.05928" lon="7.48675"><ele></ele><time>2016-7-15T3:47:25Z</time></trkpt>
<trkpt lat="46.05927" lon="7.48676"><ele></ele><time>2016-7-15T3:47:28Z</time></trkpt>
<trkpt lat="46.05913" lon="7.48675"><ele></ele><time>2016-7-15T3:47:31Z</time></trkpt>
<trkpt lat="46.05897" lon="7.48677"><ele></ele><time>2016-7-15T3:47:34Z</time></trkpt>
<trkpt lat="46.05893" lon="7.48674"><ele></ele><time>2016-7-15T3:47:37Z</time></trkpt>
<trkpt lat="46.05889" lon="7.48674"><ele></ele><time>2016-7-15T3:47:40Z</time></trkpt>
<trkpt lat="46.0589" lon="7.48674"><ele></ele><time>2016-7-15T3:47:43Z</time></trkpt>
<trkpt lat="46.05893" lon="7.48674"><ele></ele><time>2016-7-15T3:47:46Z</time></trkpt>
<trkpt lat="46.05899" lon="7.48679"><ele></ele><time>2016-7-15T3:47:49Z</time></trkpt>
<trkpt lat="46.05899" lon="7.48679"><ele></ele><time>2016-7-15T3:47:52Z</time></trkpt>
<trkpt lat="46.05899" lon="7.48679"><ele></ele><time>2016-7-15T3:47:55Z</time></trkpt>
<trkpt lat="46.05899" lon="7.48679"><ele></ele><time>2016-7-15T3:47:58Z</time></trkpt>
<trkpt lat="46.05898" lon="7.48679"><ele></ele><time>2016-7-15T3:48:1Z</time></trkpt>
<trkpt lat="46.05898" lon="7.4868"><ele></ele><time>2016-7-15T3:48:4Z</time></trkpt>
<trkpt lat="46.05898" lon="7.48679"><ele></ele><time>2016-7-15T3:48:7Z</time></trkpt>
<trkpt lat="46.05897" lon="7.48673"><ele></ele><time>2016-7-15T3:48:10Z</time></trkpt>
<trkpt lat="46.05895" lon="7.4867"><ele></ele><time>2016-7-15T3:48:13Z</time></trkpt>
<trkpt lat="46.05895" lon="7.48669"><ele></ele><time>2016-7-15T3:48:16Z</time></trkpt>
<trkpt lat="46.05895" lon="7.48669"><ele></ele><time>2016-7-15T3:48:19Z</time></trkpt>
<trkpt lat="46.05894" lon="7.4867"><ele></ele><time>2016-7-15T3:48:22Z</time></trkpt>
<trkpt lat="46.05891" lon="7.48671"><ele></ele><time>2016-7-15T3:48:25Z</time></trkpt>
<trkpt lat="46.05889" lon="7.4867"><ele></ele><time>2016-7-15T3:48:28Z</time></trkpt>
<trkpt lat="46.05889" lon="7.48671"><ele></ele><time>2016-7-15T3:48:31Z</time></trkpt>
<trkpt lat="46.05889" lon="7.48671"><ele></ele><time>2016-7-15T3:48:34Z</time></trkpt>
<trkpt lat="46.05889" lon="7.48671"><ele></ele><time>2016-7-15T3:48:37Z</time></trkpt>
<trkpt lat="46.0589" lon="7.48668"><ele></ele><time>2016-7-15T3:48:40Z</time></trkpt>
<trkpt lat="46.05893" lon="7.48667"><ele></ele><time>2016-7-15T3:48:43Z</time></trkpt>
<trkpt lat="46.05894" lon="7.48669"><ele></ele><time>2016-7-15T3:48:46Z</time></trkpt>
<trkpt lat="46.05893" lon="7.48669"><ele></ele><time>2016-7-15T3:48:49Z</time></trkpt>
<trkpt lat="46.05885" lon="7.48667"><ele></ele><time>2016-7-15T3:48:52Z</time></trkpt>
<trkpt lat="46.05879" lon="7.48664"><ele></ele><time>2016-7-15T3:48:55Z</time></trkpt>
<trkpt lat="46.0587" lon="7.48663"><ele></ele><time>2016-7-15T3:48:58Z</time></trkpt>
<trkpt lat="46.05862" lon="7.48663"><ele></ele><time>2016-7-15T3:49:1Z</time></trkpt>
<trkpt lat="46.05855" lon="7.48663"><ele></ele><time>2016-7-15T3:49:4Z</time></trkpt>
<trkpt lat="46.05857" lon="7.48663"><ele></ele><time>2016-7-15T3:49:7Z</time></trkpt>
<trkpt lat="46.05863" lon="7.48663"><ele></ele><time>2016-7-15T3:49:10Z</time></trkpt>
<trkpt lat="46.05879" lon="7.48664"><ele></ele><time>2016-7-15T3:49:13Z</time></trkpt>
<trkpt lat="46.05885" lon="7.48667"><ele></ele><time>2016-7-15T3:49:16Z</time></trkpt>
<trkpt lat="46.05891" lon="7.4867"><ele></ele><time>2016-7-15T3:49:19Z</time></trkpt>
<trkpt lat="46.05894" lon="7.4867"><ele></ele><time>2016-7-15T3:49:22Z</time></trkpt>
<trkpt lat="46.05892" lon="7.48671"><ele></ele><time>2016-7-15T3:49:25Z</time></trkpt>
<trkpt lat="46.05889" lon="7.48671"><ele></ele><time>2016-7-15T3:49:28Z</time></trkpt>
<trkpt lat="46.05889" lon="7.48671"><ele></ele><time>2016-7-15T3:49:31Z</time></trkpt>
<trkpt lat="46.05888" lon="7.4867"><ele></ele><time>2016-7-15T3:49:34Z</time></trkpt>
<trkpt lat="46.05883" lon="7.48669"><ele></ele><time>2016-7-15T3:49:37Z</time></trkpt>
<trkpt lat="46.05883" lon="7.48669"><ele></ele><time>2016-7-15T3:49:40Z</time></trkpt>
<trkpt lat="46.05888" lon="7.48669"><ele></ele><time>2016-7-15T3:49:43Z</time></trkpt>
<trkpt lat="46.05888" lon="7.4867"><ele></ele><time>2016-7-15T3:49:46Z</time></trkpt>
<trkpt lat="46.05888" lon="7.4867"><ele></ele><time>2016-7-15T3:49:49Z</time></trkpt>
<trkpt lat="46.05888" lon="7.4867"><ele></ele><time>2016-7-15T3:49:52Z</time></trkpt>
<trkpt lat="46.05883" lon="7.48669"><ele></ele><time>2016-7-15T3:49:55Z</time></trkpt>
<trkpt lat="46.05903" lon="7.48674"><ele></ele><time>2016-7-15T3:49:58Z</time></trkpt>
<trkpt lat="46.05908" lon="7.48673"><ele></ele><time>2016-7-15T3:50:1Z</time></trkpt>
<trkpt lat="46.05911" lon="7.48673"><ele></ele><time>2016-7-15T3:50:4Z</time></trkpt>
<trkpt lat="46.05904" lon="7.48673"><ele></ele><time>2016-7-15T3:50:7Z</time></trkpt>
<trkpt lat="46.05897" lon="7.48673"><ele></ele><time>2016-7-15T3:50:10Z</time></trkpt>
<trkpt lat="46.05895" lon="7.48672"><ele></ele><time>2016-7-15T3:50:13Z</time></trkpt>
<trkpt lat="46.05885" lon="7.48668"><ele></ele><time>2016-7-15T3:50:16Z</time></trkpt>
<trkpt lat="46.05888" lon="7.48668"><ele></ele><time>2016-7-15T3:50:19Z</time></trkpt>
<trkpt lat="46.05887" lon="7.48669"><ele></ele><time>2016-7-15T3:50:22Z</time></trkpt>
<trkpt lat="46.05887" lon="7.4867"><ele></ele><time>2016-7-15T3:50:25Z</time></trkpt>
<trkpt lat="46.05887" lon="7.48671"><ele></ele><time>2016-7-15T3:50:28Z</time></trkpt>
<trkpt lat="46.05889" lon="7.48671"><ele></ele><time>2016-7-15T3:50:31Z</time></trkpt>
<trkpt lat="46.05889" lon="7.4867"><ele></ele><time>2016-7-15T3:50:34Z</time></trkpt>
<trkpt lat="46.05889" lon="7.4867"><ele></ele><time>2016-7-15T3:50:37Z</time></trkpt>
<trkpt lat="46.0588" lon="7.48666"><ele></ele><time>2016-7-15T3:50:40Z</time></trkpt>
<trkpt lat="46.05856" lon="7.48663"><ele></ele><time>2016-7-15T3:50:43Z</time></trkpt>
<trkpt lat="46.05855" lon="7.48663"><ele></ele><time>2016-7-15T3:50:46Z</time></trkpt>
<trkpt lat="46.05854" lon="7.48663"><ele></ele><time>2016-7-15T3:50:49Z</time></trkpt>
<trkpt lat="46.05849" lon="7.48663"><ele></ele><time>2016-7-15T3:50:52Z</time></trkpt>
<trkpt lat="46.05847" lon="7.48662"><ele></ele><time>2016-7-15T3:50:55Z</time></trkpt>
<trkpt lat="46.05842" lon="7.48665"><ele></ele><time>2016-7-15T3:50:58Z</time></trkpt>
<trkpt lat="46.05838" lon="7.48666"><ele></ele><time>2016-7-15T3:51:1Z</time></trkpt>
<trkpt lat="46.05836" lon="7.48666"><ele></ele><time>2016-7-15T3:51:4Z</time></trkpt>
<trkpt lat="46.05835" lon="7.48666"><ele></ele><time>2016-7-15T3:51:7Z</time></trkpt>
<trkpt lat="46.05834" lon="7.48665"><ele></ele><time>2016-7-15T3:51:10Z</time></trkpt>
<trkpt lat="46.0582" lon="7.48645"><ele></ele><time>2016-7-15T3:51:13Z</time></trkpt>
<trkpt lat="46.05817" lon="7.48644"><ele></ele><time>2016-7-15T3:51:16Z</time></trkpt>
<trkpt lat="46.0581" lon="7.48637"><ele></ele><time>2016-7-15T3:51:19Z</time></trkpt>
<trkpt lat="46.05807" lon="7.48634"><ele></ele><time>2016-7-15T3:51:22Z</time></trkpt>
<trkpt lat="46.05805" lon="7.48632"><ele></ele><time>2016-7-15T3:51:25Z</time></trkpt>
<trkpt lat="46.05805" lon="7.48632"><ele></ele><time>2016-7-15T3:51:28Z</time></trkpt>
<trkpt lat="46.05797" lon="7.48626"><ele></ele><time>2016-7-15T3:51:31Z</time></trkpt>
<trkpt lat="46.05796" lon="7.48625"><ele></ele><time>2016-7-15T3:51:34Z</time></trkpt>
<trkpt lat="46.05788" lon="7.48618"><ele></ele><time>2016-7-15T3:51:37Z</time></trkpt>
<trkpt lat="46.05782" lon="7.48612"><ele></ele><time>2016-7-15T3:51:40Z</time></trkpt>
<trkpt lat="46.05776" lon="7.48613"><ele></ele><time>2016-7-15T3:51:43Z</time></trkpt>
<trkpt lat="46.05768" lon="7.48613"><ele></ele><time>2016-7-15T3:51:46Z</time></trkpt>
<trkpt lat="46.05767" lon="7.48614"><ele></ele><time>2016-7-15T3:51:49Z</time></trkpt>
<trkpt lat="46.05767" lon="7.48614"><ele></ele><time>2016-7-15T3:51:52Z</time></trkpt>
<trkpt lat="46.05765" lon="7.48617"><ele></ele><time>2016-7-15T3:51:55Z</time></trkpt>
<trkpt lat="46.05764" lon="7.48617"><ele></ele><time>2016-7-15T3:51:58Z</time></trkpt>
<trkpt lat="46.05756" lon="7.48615"><ele></ele><time>2016-7-15T3:52:1Z</time></trkpt>
<trkpt lat="46.05753" lon="7.48617"><ele></ele><time>2016-7-15T3:52:4Z</time></trkpt>
<trkpt lat="46.05749" lon="7.48619"><ele></ele><time>2016-7-15T3:52:7Z</time></trkpt>
<trkpt lat="46.05748" lon="7.4862"><ele></ele><time>2016-7-15T3:52:10Z</time></trkpt>
<trkpt lat="46.05748" lon="7.4862"><ele></ele><time>2016-7-15T3:52:13Z</time></trkpt>
<trkpt lat="46.05739" lon="7.48618"><ele></ele><time>2016-7-15T3:52:16Z</time></trkpt>
<trkpt lat="46.05738" lon="7.48618"><ele></ele><time>2016-7-15T3:52:19Z</time></trkpt>
<trkpt lat="46.05734" lon="7.48619"><ele></ele><time>2016-7-15T3:52:22Z</time></trkpt>
<trkpt lat="46.05727" lon="7.48617"><ele></ele><time>2016-7-15T3:52:25Z</time></trkpt>
<trkpt lat="46.05725" lon="7.48618"><ele></ele><time>2016-7-15T3:52:28Z</time></trkpt>
<trkpt lat="46.05719" lon="7.48613"><ele></ele><time>2016-7-15T3:52:31Z</time></trkpt>
<trkpt lat="46.05711" lon="7.48612"><ele></ele><time>2016-7-15T3:52:34Z</time></trkpt>
<trkpt lat="46.0571" lon="7.48613"><ele></ele><time>2016-7-15T3:52:37Z</time></trkpt>
<trkpt lat="46.05709" lon="7.48613"><ele></ele><time>2016-7-15T3:52:40Z</time></trkpt>
<trkpt lat="46.05698" lon="7.48605"><ele></ele><time>2016-7-15T3:52:43Z</time></trkpt>
<trkpt lat="46.05682" lon="7.48599"><ele></ele><time>2016-7-15T3:52:46Z</time></trkpt>
<trkpt lat="46.05679" lon="7.48599"><ele></ele><time>2016-7-15T3:52:49Z</time></trkpt>
<trkpt lat="46.05676" lon="7.486"><ele></ele><time>2016-7-15T3:52:52Z</time></trkpt>
<trkpt lat="46.05669" lon="7.486"><ele></ele><time>2016-7-15T3:52:55Z</time></trkpt>
<trkpt lat="46.05667" lon="7.48604"><ele></ele><time>2016-7-15T3:52:58Z</time></trkpt>
<trkpt lat="46.0566" lon="7.48615"><ele></ele><time>2016-7-15T3:53:1Z</time></trkpt>
<trkpt lat="46.05659" lon="7.48615"><ele></ele><time>2016-7-15T3:53:4Z</time></trkpt>
<trkpt lat="46.05654" lon="7.4862"><ele></ele><time>2016-7-15T3:53:7Z</time></trkpt>
<trkpt lat="46.05644" lon="7.48627"><ele></ele><time>2016-7-15T3:53:10Z</time></trkpt>
<trkpt lat="46.05638" lon="7.48636"><ele></ele><time>2016-7-15T3:53:13Z</time></trkpt>
<trkpt lat="46.05637" lon="7.48636"><ele></ele><time>2016-7-15T3:53:16Z</time></trkpt>
<trkpt lat="46.05636" lon="7.48637"><ele></ele><time>2016-7-15T3:53:19Z</time></trkpt>
<trkpt lat="46.05634" lon="7.48636"><ele></ele><time>2016-7-15T3:53:22Z</time></trkpt>
<trkpt lat="46.05632" lon="7.48636"><ele></ele><time>2016-7-15T3:53:25Z</time></trkpt>
<trkpt lat="46.05625" lon="7.48637"><ele></ele><time>2016-7-15T3:53:28Z</time></trkpt>
<trkpt lat="46.05621" lon="7.48641"><ele></ele><time>2016-7-15T3:53:31Z</time></trkpt>
<trkpt lat="46.0562" lon="7.48643"><ele></ele><time>2016-7-15T3:53:34Z</time></trkpt>
<trkpt lat="46.05618" lon="7.48644"><ele></ele><time>2016-7-15T3:53:37Z</time></trkpt>
<trkpt lat="46.05616" lon="7.48641"><ele></ele><time>2016-7-15T3:53:40Z</time></trkpt>
<trkpt lat="46.05614" lon="7.48638"><ele></ele><time>2016-7-15T3:53:43Z</time></trkpt>
<trkpt lat="46.05612" lon="7.48637"><ele></ele><time>2016-7-15T3:53:46Z</time></trkpt>
<trkpt lat="46.05609" lon="7.48637"><ele></ele><time>2016-7-15T3:53:49Z</time></trkpt>
<trkpt lat="46.05608" lon="7.48637"><ele></ele><time>2016-7-15T3:53:52Z</time></trkpt>
<trkpt lat="46.05602" lon="7.48636"><ele></ele><time>2016-7-15T3:53:55Z</time></trkpt>
<trkpt lat="46.05598" lon="7.48638"><ele></ele><time>2016-7-15T3:53:58Z</time></trkpt>
<trkpt lat="46.05594" lon="7.48638"><ele></ele><time>2016-7-15T3:54:1Z</time></trkpt>
<trkpt lat="46.05591" lon="7.48638"><ele></ele><time>2016-7-15T3:54:4Z</time></trkpt>
<trkpt lat="46.05588" lon="7.48639"><ele></ele><time>2016-7-15T3:54:7Z</time></trkpt>
<trkpt lat="46.05587" lon="7.4864"><ele></ele><time>2016-7-15T3:54:10Z</time></trkpt>
<trkpt lat="46.05584" lon="7.48639"><ele></ele><time>2016-7-15T3:54:13Z</time></trkpt>
<trkpt lat="46.05579" lon="7.48633"><ele></ele><time>2016-7-15T3:54:16Z</time></trkpt>
<trkpt lat="46.05576" lon="7.48628"><ele></ele><time>2016-7-15T3:54:19Z</time></trkpt>
<trkpt lat="46.05575" lon="7.48628"><ele></ele><time>2016-7-15T3:54:22Z</time></trkpt>
<trkpt lat="46.05573" lon="7.48627"><ele></ele><time>2016-7-15T3:54:25Z</time></trkpt>
<trkpt lat="46.05565" lon="7.48627"><ele></ele><time>2016-7-15T3:54:28Z</time></trkpt>
<trkpt lat="46.05559" lon="7.48644"><ele></ele><time>2016-7-15T3:54:31Z</time></trkpt>
<trkpt lat="46.0556" lon="7.48648"><ele></ele><time>2016-7-15T3:54:34Z</time></trkpt>
<trkpt lat="46.0556" lon="7.48651"><ele></ele><time>2016-7-15T3:54:37Z</time></trkpt>
<trkpt lat="46.05558" lon="7.48655"><ele></ele><time>2016-7-15T3:54:40Z</time></trkpt>
<trkpt lat="46.05556" lon="7.48655"><ele></ele><time>2016-7-15T3:54:43Z</time></trkpt>
<trkpt lat="46.0555" lon="7.48653"><ele></ele><time>2016-7-15T3:54:46Z</time></trkpt>
<trkpt lat="46.05543" lon="7.4865"><ele></ele><time>2016-7-15T3:54:49Z</time></trkpt>
<trkpt lat="46.05533" lon="7.48649"><ele></ele><time>2016-7-15T3:54:52Z</time></trkpt>
<trkpt lat="46.05522" lon="7.48654"><ele></ele><time>2016-7-15T3:54:55Z</time></trkpt>
<trkpt lat="46.05518" lon="7.48663"><ele></ele><time>2016-7-15T3:54:58Z</time></trkpt>
<trkpt lat="46.05517" lon="7.48676"><ele></ele><time>2016-7-15T3:55:1Z</time></trkpt>
<trkpt lat="46.05516" lon="7.48683"><ele></ele><time>2016-7-15T3:55:4Z</time></trkpt>
<trkpt lat="46.05515" lon="7.48686"><ele></ele><time>2016-7-15T3:55:7Z</time></trkpt>
<trkpt lat="46.05513" lon="7.48691"><ele></ele><time>2016-7-15T3:55:10Z</time></trkpt>
<trkpt lat="46.05512" lon="7.48694"><ele></ele><time>2016-7-15T3:55:13Z</time></trkpt>
<trkpt lat="46.0551" lon="7.48703"><ele></ele><time>2016-7-15T3:55:16Z</time></trkpt>
<trkpt lat="46.05504" lon="7.48706"><ele></ele><time>2016-7-15T3:55:19Z</time></trkpt>
<trkpt lat="46.05502" lon="7.48706"><ele></ele><time>2016-7-15T3:55:22Z</time></trkpt>
<trkpt lat="46.05499" lon="7.48708"><ele></ele><time>2016-7-15T3:55:25Z</time></trkpt>
<trkpt lat="46.05491" lon="7.48717"><ele></ele><time>2016-7-15T3:55:28Z</time></trkpt>
<trkpt lat="46.05484" lon="7.48731"><ele></ele><time>2016-7-15T3:55:31Z</time></trkpt>
<trkpt lat="46.05506" lon="7.4875"><ele></ele><time>2016-7-15T3:55:34Z</time></trkpt>
<trkpt lat="46.05514" lon="7.48755"><ele></ele><time>2016-7-15T3:55:37Z</time></trkpt>
<trkpt lat="46.05529" lon="7.48763"><ele></ele><time>2016-7-15T3:55:40Z</time></trkpt>
<trkpt lat="46.05536" lon="7.48766"><ele></ele><time>2016-7-15T3:55:43Z</time></trkpt>
<trkpt lat="46.05554" lon="7.48777"><ele></ele><time>2016-7-15T3:55:46Z</time></trkpt>
<trkpt lat="46.0557" lon="7.48794"><ele></ele><time>2016-7-15T3:55:49Z</time></trkpt>
<trkpt lat="46.05584" lon="7.48808"><ele></ele><time>2016-7-15T3:55:52Z</time></trkpt>
<trkpt lat="46.05587" lon="7.48811"><ele></ele><time>2016-7-15T3:55:55Z</time></trkpt>
<trkpt lat="46.0559" lon="7.48813"><ele></ele><time>2016-7-15T3:55:58Z</time></trkpt>
<trkpt lat="46.05592" lon="7.48816"><ele></ele><time>2016-7-15T3:56:1Z</time></trkpt>
<trkpt lat="46.05596" lon="7.48819"><ele></ele><time>2016-7-15T3:56:4Z</time></trkpt>
<trkpt lat="46.0561" lon="7.48838"><ele></ele><time>2016-7-15T3:56:7Z</time></trkpt>
<trkpt lat="46.05627" lon="7.4886"><ele></ele><time>2016-7-15T3:56:10Z</time></trkpt>
<trkpt lat="46.05635" lon="7.48886"><ele></ele><time>2016-7-15T3:56:13Z</time></trkpt>
<trkpt lat="46.0565" lon="7.48906"><ele></ele><time>2016-7-15T3:56:16Z</time></trkpt>
<trkpt lat="46.05668" lon="7.48917"><ele></ele><time>2016-7-15T3:56:19Z</time></trkpt>
<trkpt lat="46.05691" lon="7.48919"><ele></ele><time>2016-7-15T3:56:22Z</time></trkpt>
<trkpt lat="46.0571" lon="7.48926"><ele></ele><time>2016-7-15T3:56:25Z</time></trkpt>
<trkpt lat="46.05732" lon="7.48923"><ele></ele><time>2016-7-15T3:56:28Z</time></trkpt>
<trkpt lat="46.05737" lon="7.48921"><ele></ele><time>2016-7-15T3:56:31Z</time></trkpt>
<trkpt lat="46.05759" lon="7.4892"><ele></ele><time>2016-7-15T3:56:34Z</time></trkpt>
<trkpt lat="46.05764" lon="7.48925"><ele></ele><time>2016-7-15T3:56:37Z</time></trkpt>
<trkpt lat="46.05776" lon="7.48941"><ele></ele><time>2016-7-15T3:56:40Z</time></trkpt>
<trkpt lat="46.05793" lon="7.48941"><ele></ele><time>2016-7-15T3:56:43Z</time></trkpt>
<trkpt lat="46.05809" lon="7.48936"><ele></ele><time>2016-7-15T3:56:46Z</time></trkpt>
<trkpt lat="46.05822" lon="7.48944"><ele></ele><time>2016-7-15T3:56:49Z</time></trkpt>
<trkpt lat="46.05826" lon="7.48948"><ele></ele><time>2016-7-15T3:56:52Z</time></trkpt>
<trkpt lat="46.0583" lon="7.48954"><ele></ele><time>2016-7-15T3:56:55Z</time></trkpt>
<trkpt lat="46.05835" lon="7.4898"><ele></ele><time>2016-7-15T3:56:58Z</time></trkpt>
<trkpt lat="46.05834" lon="7.48984"><ele></ele><time>2016-7-15T3:57:1Z</time></trkpt>
<trkpt lat="46.05834" lon="7.48988"><ele></ele><time>2016-7-15T3:57:4Z</time></trkpt>
<trkpt lat="46.05845" lon="7.49004"><ele></ele><time>2016-7-15T3:57:7Z</time></trkpt>
<trkpt lat="46.05866" lon="7.49005"><ele></ele><time>2016-7-15T3:57:10Z</time></trkpt>
<trkpt lat="46.05869" lon="7.49008"><ele></ele><time>2016-7-15T3:57:13Z</time></trkpt>
<trkpt lat="46.05879" lon="7.49019"><ele></ele><time>2016-7-15T3:57:16Z</time></trkpt>
<trkpt lat="46.05882" lon="7.49023"><ele></ele><time>2016-7-15T3:57:19Z</time></trkpt>
<trkpt lat="46.05896" lon="7.49044"><ele></ele><time>2016-7-15T3:57:22Z</time></trkpt>
<trkpt lat="46.05907" lon="7.49062"><ele></ele><time>2016-7-15T3:57:25Z</time></trkpt>
<trkpt lat="46.05922" lon="7.49085"><ele></ele><time>2016-7-15T3:57:28Z</time></trkpt>
<trkpt lat="46.05926" lon="7.49089"><ele></ele><time>2016-7-15T3:57:31Z</time></trkpt>
<trkpt lat="46.05948" lon="7.49113"><ele></ele><time>2016-7-15T3:57:34Z</time></trkpt>
<trkpt lat="46.05955" lon="7.49119"><ele></ele><time>2016-7-15T3:57:37Z</time></trkpt>
<trkpt lat="46.05974" lon="7.49122"><ele></ele><time>2016-7-15T3:57:40Z</time></trkpt>
<trkpt lat="46.05983" lon="7.49123"><ele></ele><time>2016-7-15T3:57:43Z</time></trkpt>
<trkpt lat="46.05991" lon="7.49124"><ele></ele><time>2016-7-15T3:57:46Z</time></trkpt>
<trkpt lat="46.06" lon="7.49127"><ele></ele><time>2016-7-15T3:57:49Z</time></trkpt>
<trkpt lat="46.06003" lon="7.49127"><ele></ele><time>2016-7-15T3:57:52Z</time></trkpt>
<trkpt lat="46.06005" lon="7.49127"><ele></ele><time>2016-7-15T3:57:55Z</time></trkpt>
<trkpt lat="46.06007" lon="7.49128"><ele></ele><time>2016-7-15T3:57:58Z</time></trkpt>
<trkpt lat="46.06004" lon="7.49137"><ele></ele><time>2016-7-15T3:58:1Z</time></trkpt>
<trkpt lat="46.06002" lon="7.49139"><ele></ele><time>2016-7-15T3:58:4Z</time></trkpt>
<trkpt lat="46.05992" lon="7.49135"><ele></ele><time>2016-7-15T3:58:7Z</time></trkpt>
<trkpt lat="46.05982" lon="7.49134"><ele></ele><time>2016-7-15T3:58:10Z</time></trkpt>
<trkpt lat="46.0597" lon="7.49134"><ele></ele><time>2016-7-15T3:58:13Z</time></trkpt>
<trkpt lat="46.05965" lon="7.49135"><ele></ele><time>2016-7-15T3:58:16Z</time></trkpt>
<trkpt lat="46.0595" lon="7.49136"><ele></ele><time>2016-7-15T3:58:19Z</time></trkpt>
<trkpt lat="46.05931" lon="7.49137"><ele></ele><time>2016-7-15T3:58:22Z</time></trkpt>
<trkpt lat="46.05911" lon="7.49138"><ele></ele><time>2016-7-15T3:58:25Z</time></trkpt>
<trkpt lat="46.05902" lon="7.49137"><ele></ele><time>2016-7-15T3:58:28Z</time></trkpt>
<trkpt lat="46.05891" lon="7.49131"><ele></ele><time>2016-7-15T3:58:31Z</time></trkpt>
<trkpt lat="46.05874" lon="7.49123"><ele></ele><time>2016-7-15T3:58:34Z</time></trkpt>
<trkpt lat="46.05856" lon="7.49116"><ele></ele><time>2016-7-15T3:58:37Z</time></trkpt>
<trkpt lat="46.05837" lon="7.49107"><ele></ele><time>2016-7-15T3:58:40Z</time></trkpt>
<trkpt lat="46.0582" lon="7.491"><ele></ele><time>2016-7-15T3:58:43Z</time></trkpt>
<trkpt lat="46.05801" lon="7.49095"><ele></ele><time>2016-7-15T3:58:46Z</time></trkpt>
<trkpt lat="46.05779" lon="7.4909"><ele></ele><time>2016-7-15T3:58:49Z</time></trkpt>
<trkpt lat="46.0576" lon="7.49086"><ele></ele><time>2016-7-15T3:58:52Z</time></trkpt>
<trkpt lat="46.05741" lon="7.49087"><ele></ele><time>2016-7-15T3:58:55Z</time></trkpt>
<trkpt lat="46.05722" lon="7.49093"><ele></ele><time>2016-7-15T3:58:58Z</time></trkpt>
<trkpt lat="46.05704" lon="7.49098"><ele></ele><time>2016-7-15T3:59:1Z</time></trkpt>
<trkpt lat="46.05684" lon="7.49099"><ele></ele><time>2016-7-15T3:59:4Z</time></trkpt>
<trkpt lat="46.05659" lon="7.491"><ele></ele><time>2016-7-15T3:59:7Z</time></trkpt>
<trkpt lat="46.05651" lon="7.49098"><ele></ele><time>2016-7-15T3:59:10Z</time></trkpt>
<trkpt lat="46.05631" lon="7.49092"><ele></ele><time>2016-7-15T3:59:13Z</time></trkpt>
<trkpt lat="46.05611" lon="7.49082"><ele></ele><time>2016-7-15T3:59:16Z</time></trkpt>
<trkpt lat="46.05592" lon="7.49074"><ele></ele><time>2016-7-15T3:59:19Z</time></trkpt>
<trkpt lat="46.05572" lon="7.49073"><ele></ele><time>2016-7-15T3:59:22Z</time></trkpt>
<trkpt lat="46.05551" lon="7.49077"><ele></ele><time>2016-7-15T3:59:25Z</time></trkpt>
<trkpt lat="46.05547" lon="7.49079"><ele></ele><time>2016-7-15T3:59:28Z</time></trkpt>
<trkpt lat="46.05528" lon="7.49093"><ele></ele><time>2016-7-15T3:59:31Z</time></trkpt>
<trkpt lat="46.05508" lon="7.49098"><ele></ele><time>2016-7-15T3:59:34Z</time></trkpt>
<trkpt lat="46.05499" lon="7.49094"><ele></ele><time>2016-7-15T3:59:37Z</time></trkpt>
<trkpt lat="46.05482" lon="7.4908"><ele></ele><time>2016-7-15T3:59:40Z</time></trkpt>
<trkpt lat="46.05464" lon="7.49059"><ele></ele><time>2016-7-15T3:59:43Z</time></trkpt>
<trkpt lat="46.05451" lon="7.4904"><ele></ele><time>2016-7-15T3:59:46Z</time></trkpt>
<trkpt lat="46.05446" lon="7.49033"><ele></ele><time>2016-7-15T3:59:49Z</time></trkpt>
<trkpt lat="46.0544" lon="7.49028"><ele></ele><time>2016-7-15T3:59:52Z</time></trkpt>
<trkpt lat="46.05434" lon="7.49024"><ele></ele><time>2016-7-15T3:59:55Z</time></trkpt>
<trkpt lat="46.05419" lon="7.49021"><ele></ele><time>2016-7-15T3:59:58Z</time></trkpt>
<trkpt lat="46.05396" lon="7.49025"><ele></ele><time>2016-7-15T4:0:1Z</time></trkpt>
</trkseg></trk></gpx>